<?xml version="1.0" encoding="UTF-8" standalone="no" ?>
<gpx xmlns="http://www.topografix.com/GPX/1/1" xmlns:xsi="http://www.w3.org/2001/XMLSchema-instance" xsi:schemaLocation="http://www.topografix.com/GPX/1/1 http://www.topografix.com/GPX/1/1/gpx.xsd" version="1.1" creator="VisuGPX - https://www.visugpx.com">
  <metadata>
    <name>83-Me-Flayosc</name>
    <desc><![CDATA[83-Me-FLAYOSC - A la découverte du canal
2025-01-29-CTDT]]></desc>
  </metadata>
  <trk>
    <name><![CDATA[2025-01-29-Me-Flayosc-DBCT]]></name>
    <extensions>
      <line xmlns="http://www.topografix.com/GPX/gpx_style/0/2">
        <width>4</width>
      </line>
    </extensions>
    <trkseg>
      <trkpt lat="43.56485" lon="6.36751">
        <ele>469.2</ele>
        <time>2025-01-29T13:01:08.000Z</time>
      </trkpt>
      <trkpt lat="43.56485" lon="6.36752">
        <ele>469.2</ele>
        <time>2025-01-29T13:01:09.000Z</time>
      </trkpt>
      <trkpt lat="43.5649" lon="6.36742">
        <ele>469.5</ele>
        <time>2025-01-29T13:02:52.000Z</time>
      </trkpt>
      <trkpt lat="43.56498" lon="6.36735">
        <ele>469.4</ele>
        <time>2025-01-29T13:04:03.000Z</time>
      </trkpt>
      <trkpt lat="43.56505" lon="6.36728">
        <ele>470.8</ele>
        <time>2025-01-29T13:04:41.000Z</time>
      </trkpt>
      <trkpt lat="43.56509" lon="6.36717">
        <ele>471.4</ele>
        <time>2025-01-29T13:04:54.000Z</time>
      </trkpt>
      <trkpt lat="43.56513" lon="6.36705">
        <ele>471.8</ele>
        <time>2025-01-29T13:05:05.000Z</time>
      </trkpt>
      <trkpt lat="43.56516" lon="6.36692">
        <ele>472.4</ele>
        <time>2025-01-29T13:05:15.000Z</time>
      </trkpt>
      <trkpt lat="43.56521" lon="6.3668">
        <ele>473.1</ele>
        <time>2025-01-29T13:05:24.000Z</time>
      </trkpt>
      <trkpt lat="43.56526" lon="6.36669">
        <ele>473.4</ele>
        <time>2025-01-29T13:05:33.000Z</time>
      </trkpt>
      <trkpt lat="43.56533" lon="6.36659">
        <ele>473.5</ele>
        <time>2025-01-29T13:05:43.000Z</time>
      </trkpt>
      <trkpt lat="43.56537" lon="6.36648">
        <ele>473.1</ele>
        <time>2025-01-29T13:06:11.000Z</time>
      </trkpt>
      <trkpt lat="43.56542" lon="6.36636">
        <ele>473</ele>
        <time>2025-01-29T13:06:22.000Z</time>
      </trkpt>
      <trkpt lat="43.56548" lon="6.36626">
        <ele>472.8</ele>
        <time>2025-01-29T13:06:42.000Z</time>
      </trkpt>
      <trkpt lat="43.56555" lon="6.36617">
        <ele>473</ele>
        <time>2025-01-29T13:06:56.000Z</time>
      </trkpt>
      <trkpt lat="43.56563" lon="6.36623">
        <ele>473</ele>
        <time>2025-01-29T13:07:09.000Z</time>
      </trkpt>
      <trkpt lat="43.5657" lon="6.36633">
        <ele>473.1</ele>
        <time>2025-01-29T13:07:21.000Z</time>
      </trkpt>
      <trkpt lat="43.56576" lon="6.36644">
        <ele>473.3</ele>
        <time>2025-01-29T13:07:33.000Z</time>
      </trkpt>
      <trkpt lat="43.56583" lon="6.36651">
        <ele>473.7</ele>
        <time>2025-01-29T13:07:45.000Z</time>
      </trkpt>
      <trkpt lat="43.5659" lon="6.3666">
        <ele>474.5</ele>
        <time>2025-01-29T13:07:57.000Z</time>
      </trkpt>
      <trkpt lat="43.56596" lon="6.3667">
        <ele>475.2</ele>
        <time>2025-01-29T13:08:07.000Z</time>
      </trkpt>
      <trkpt lat="43.56602" lon="6.3668">
        <ele>475.9</ele>
        <time>2025-01-29T13:08:18.000Z</time>
      </trkpt>
      <trkpt lat="43.56608" lon="6.36691">
        <ele>477.2</ele>
        <time>2025-01-29T13:08:34.000Z</time>
      </trkpt>
      <trkpt lat="43.56615" lon="6.367">
        <ele>477.7</ele>
        <time>2025-01-29T13:08:49.000Z</time>
      </trkpt>
      <trkpt lat="43.56621" lon="6.3671">
        <ele>478</ele>
        <time>2025-01-29T13:08:59.000Z</time>
      </trkpt>
      <trkpt lat="43.56628" lon="6.3672">
        <ele>478.4</ele>
        <time>2025-01-29T13:09:09.000Z</time>
      </trkpt>
      <trkpt lat="43.56635" lon="6.36728">
        <ele>479.3</ele>
        <time>2025-01-29T13:09:26.000Z</time>
      </trkpt>
      <trkpt lat="43.56638" lon="6.3674">
        <ele>480.1</ele>
        <time>2025-01-29T13:09:57.000Z</time>
      </trkpt>
      <trkpt lat="43.56634" lon="6.36752">
        <ele>480.4</ele>
        <time>2025-01-29T13:10:08.000Z</time>
      </trkpt>
      <trkpt lat="43.56629" lon="6.36763">
        <ele>480.7</ele>
        <time>2025-01-29T13:10:18.000Z</time>
      </trkpt>
      <trkpt lat="43.56626" lon="6.36775">
        <ele>480.9</ele>
        <time>2025-01-29T13:10:30.000Z</time>
      </trkpt>
      <trkpt lat="43.56626" lon="6.36787">
        <ele>482.4</ele>
        <time>2025-01-29T13:10:46.000Z</time>
      </trkpt>
      <trkpt lat="43.56623" lon="6.368">
        <ele>483.7</ele>
        <time>2025-01-29T13:11:02.000Z</time>
      </trkpt>
      <trkpt lat="43.56618" lon="6.36811">
        <ele>485.2</ele>
        <time>2025-01-29T13:11:14.000Z</time>
      </trkpt>
      <trkpt lat="43.56617" lon="6.36825">
        <ele>486.5</ele>
        <time>2025-01-29T13:11:28.000Z</time>
      </trkpt>
      <trkpt lat="43.5662" lon="6.36837">
        <ele>487.7</ele>
        <time>2025-01-29T13:11:41.000Z</time>
      </trkpt>
      <trkpt lat="43.56622" lon="6.36849">
        <ele>488.9</ele>
        <time>2025-01-29T13:11:53.000Z</time>
      </trkpt>
      <trkpt lat="43.56623" lon="6.36862">
        <ele>490.2</ele>
        <time>2025-01-29T13:12:07.000Z</time>
      </trkpt>
      <trkpt lat="43.56622" lon="6.36875">
        <ele>491.5</ele>
        <time>2025-01-29T13:12:19.000Z</time>
      </trkpt>
      <trkpt lat="43.56623" lon="6.36888">
        <ele>493</ele>
        <time>2025-01-29T13:12:31.000Z</time>
      </trkpt>
      <trkpt lat="43.56623" lon="6.36901">
        <ele>494.6</ele>
        <time>2025-01-29T13:12:43.000Z</time>
      </trkpt>
      <trkpt lat="43.5662" lon="6.36913">
        <ele>495.2</ele>
        <time>2025-01-29T13:12:52.000Z</time>
      </trkpt>
      <trkpt lat="43.56615" lon="6.36925">
        <ele>495.5</ele>
        <time>2025-01-29T13:13:00.000Z</time>
      </trkpt>
      <trkpt lat="43.56609" lon="6.36934">
        <ele>495.5</ele>
        <time>2025-01-29T13:13:10.000Z</time>
      </trkpt>
      <trkpt lat="43.56601" lon="6.36942">
        <ele>495.6</ele>
        <time>2025-01-29T13:13:19.000Z</time>
      </trkpt>
      <trkpt lat="43.56596" lon="6.36953">
        <ele>495.9</ele>
        <time>2025-01-29T13:13:28.000Z</time>
      </trkpt>
      <trkpt lat="43.5659" lon="6.36962">
        <ele>496.1</ele>
        <time>2025-01-29T13:13:37.000Z</time>
      </trkpt>
      <trkpt lat="43.56583" lon="6.36971">
        <ele>495.7</ele>
        <time>2025-01-29T13:13:46.000Z</time>
      </trkpt>
      <trkpt lat="43.56575" lon="6.3698">
        <ele>495.1</ele>
        <time>2025-01-29T13:13:55.000Z</time>
      </trkpt>
      <trkpt lat="43.56568" lon="6.36988">
        <ele>494.3</ele>
        <time>2025-01-29T13:14:04.000Z</time>
      </trkpt>
      <trkpt lat="43.56562" lon="6.36998">
        <ele>493.8</ele>
        <time>2025-01-29T13:14:13.000Z</time>
      </trkpt>
      <trkpt lat="43.56558" lon="6.3701">
        <ele>493.4</ele>
        <time>2025-01-29T13:14:23.000Z</time>
      </trkpt>
      <trkpt lat="43.56553" lon="6.3702">
        <ele>492.8</ele>
        <time>2025-01-29T13:14:32.000Z</time>
      </trkpt>
      <trkpt lat="43.56548" lon="6.37031">
        <ele>492.2</ele>
        <time>2025-01-29T13:14:41.000Z</time>
      </trkpt>
      <trkpt lat="43.56544" lon="6.37043">
        <ele>491.4</ele>
        <time>2025-01-29T13:14:51.000Z</time>
      </trkpt>
      <trkpt lat="43.56539" lon="6.37055">
        <ele>490.8</ele>
        <time>2025-01-29T13:15:01.000Z</time>
      </trkpt>
      <trkpt lat="43.56532" lon="6.37064">
        <ele>490.6</ele>
        <time>2025-01-29T13:15:09.000Z</time>
      </trkpt>
      <trkpt lat="43.56527" lon="6.37075">
        <ele>490.3</ele>
        <time>2025-01-29T13:15:17.000Z</time>
      </trkpt>
      <trkpt lat="43.56522" lon="6.37087">
        <ele>490.2</ele>
        <time>2025-01-29T13:15:25.000Z</time>
      </trkpt>
      <trkpt lat="43.56519" lon="6.371">
        <ele>489.8</ele>
        <time>2025-01-29T13:15:37.000Z</time>
      </trkpt>
      <trkpt lat="43.56515" lon="6.3711">
        <ele>489.7</ele>
        <time>2025-01-29T13:15:49.000Z</time>
      </trkpt>
      <trkpt lat="43.56512" lon="6.37123">
        <ele>489.7</ele>
        <time>2025-01-29T13:15:59.000Z</time>
      </trkpt>
      <trkpt lat="43.56512" lon="6.37135">
        <ele>490.1</ele>
        <time>2025-01-29T13:16:08.000Z</time>
      </trkpt>
      <trkpt lat="43.56515" lon="6.37148">
        <ele>490.4</ele>
        <time>2025-01-29T13:16:16.000Z</time>
      </trkpt>
      <trkpt lat="43.56518" lon="6.37159">
        <ele>490.6</ele>
        <time>2025-01-29T13:16:28.000Z</time>
      </trkpt>
      <trkpt lat="43.56523" lon="6.37171">
        <ele>490.9</ele>
        <time>2025-01-29T13:16:38.000Z</time>
      </trkpt>
      <trkpt lat="43.56527" lon="6.37183">
        <ele>491.1</ele>
        <time>2025-01-29T13:16:47.000Z</time>
      </trkpt>
      <trkpt lat="43.56532" lon="6.37193">
        <ele>491.6</ele>
        <time>2025-01-29T13:16:57.000Z</time>
      </trkpt>
      <trkpt lat="43.56536" lon="6.37206">
        <ele>492.3</ele>
        <time>2025-01-29T13:17:06.000Z</time>
      </trkpt>
      <trkpt lat="43.5654" lon="6.37218">
        <ele>492.7</ele>
        <time>2025-01-29T13:17:15.000Z</time>
      </trkpt>
      <trkpt lat="43.56543" lon="6.37232">
        <ele>493.5</ele>
        <time>2025-01-29T13:17:26.000Z</time>
      </trkpt>
      <trkpt lat="43.56545" lon="6.37245">
        <ele>494</ele>
        <time>2025-01-29T13:17:36.000Z</time>
      </trkpt>
      <trkpt lat="43.56548" lon="6.37258">
        <ele>494</ele>
        <time>2025-01-29T13:17:46.000Z</time>
      </trkpt>
      <trkpt lat="43.56551" lon="6.3727">
        <ele>494</ele>
        <time>2025-01-29T13:17:54.000Z</time>
      </trkpt>
      <trkpt lat="43.56553" lon="6.37283">
        <ele>494</ele>
        <time>2025-01-29T13:18:02.000Z</time>
      </trkpt>
      <trkpt lat="43.56551" lon="6.37296">
        <ele>494.9</ele>
        <time>2025-01-29T13:18:15.000Z</time>
      </trkpt>
      <trkpt lat="43.56545" lon="6.37305">
        <ele>497.2</ele>
        <time>2025-01-29T13:18:35.000Z</time>
      </trkpt>
      <trkpt lat="43.56541" lon="6.37317">
        <ele>499.4</ele>
        <time>2025-01-29T13:18:51.000Z</time>
      </trkpt>
      <trkpt lat="43.56535" lon="6.37328">
        <ele>501.6</ele>
        <time>2025-01-29T13:19:06.000Z</time>
      </trkpt>
      <trkpt lat="43.56532" lon="6.3734">
        <ele>503</ele>
        <time>2025-01-29T13:19:16.000Z</time>
      </trkpt>
      <trkpt lat="43.56528" lon="6.37351">
        <ele>503.8</ele>
        <time>2025-01-29T13:19:25.000Z</time>
      </trkpt>
      <trkpt lat="43.56523" lon="6.37362">
        <ele>504.3</ele>
        <time>2025-01-29T13:19:34.000Z</time>
      </trkpt>
      <trkpt lat="43.56516" lon="6.37372">
        <ele>504.4</ele>
        <time>2025-01-29T13:19:42.000Z</time>
      </trkpt>
      <trkpt lat="43.5651" lon="6.37382">
        <ele>504.6</ele>
        <time>2025-01-29T13:19:50.000Z</time>
      </trkpt>
      <trkpt lat="43.56504" lon="6.37392">
        <ele>505</ele>
        <time>2025-01-29T13:19:58.000Z</time>
      </trkpt>
      <trkpt lat="43.56498" lon="6.374">
        <ele>505.2</ele>
        <time>2025-01-29T13:20:05.000Z</time>
      </trkpt>
      <trkpt lat="43.56491" lon="6.3741">
        <ele>505.3</ele>
        <time>2025-01-29T13:20:13.000Z</time>
      </trkpt>
      <trkpt lat="43.56484" lon="6.37419">
        <ele>505.3</ele>
        <time>2025-01-29T13:20:21.000Z</time>
      </trkpt>
      <trkpt lat="43.56477" lon="6.37427">
        <ele>505.4</ele>
        <time>2025-01-29T13:20:28.000Z</time>
      </trkpt>
      <trkpt lat="43.56472" lon="6.37438">
        <ele>505.2</ele>
        <time>2025-01-29T13:20:42.000Z</time>
      </trkpt>
      <trkpt lat="43.56468" lon="6.37449">
        <ele>504.3</ele>
        <time>2025-01-29T13:22:11.000Z</time>
      </trkpt>
      <trkpt lat="43.56461" lon="6.37458">
        <ele>504.1</ele>
        <time>2025-01-29T13:22:31.000Z</time>
      </trkpt>
      <trkpt lat="43.56457" lon="6.3747">
        <ele>503.8</ele>
        <time>2025-01-29T13:22:41.000Z</time>
      </trkpt>
      <trkpt lat="43.56453" lon="6.37481">
        <ele>503.4</ele>
        <time>2025-01-29T13:22:51.000Z</time>
      </trkpt>
      <trkpt lat="43.56449" lon="6.37493">
        <ele>503.1</ele>
        <time>2025-01-29T13:23:01.000Z</time>
      </trkpt>
      <trkpt lat="43.56444" lon="6.37504">
        <ele>502.9</ele>
        <time>2025-01-29T13:23:08.000Z</time>
      </trkpt>
      <trkpt lat="43.56438" lon="6.37514">
        <ele>502.8</ele>
        <time>2025-01-29T13:23:16.000Z</time>
      </trkpt>
      <trkpt lat="43.5643" lon="6.37523">
        <ele>502.8</ele>
        <time>2025-01-29T13:23:25.000Z</time>
      </trkpt>
      <trkpt lat="43.56424" lon="6.37533">
        <ele>502.8</ele>
        <time>2025-01-29T13:23:33.000Z</time>
      </trkpt>
      <trkpt lat="43.56418" lon="6.37544">
        <ele>502.4</ele>
        <time>2025-01-29T13:23:41.000Z</time>
      </trkpt>
      <trkpt lat="43.56414" lon="6.37556">
        <ele>501.9</ele>
        <time>2025-01-29T13:23:50.000Z</time>
      </trkpt>
      <trkpt lat="43.56411" lon="6.37568">
        <ele>501.1</ele>
        <time>2025-01-29T13:23:59.000Z</time>
      </trkpt>
      <trkpt lat="43.56405" lon="6.3758">
        <ele>500.4</ele>
        <time>2025-01-29T13:24:08.000Z</time>
      </trkpt>
      <trkpt lat="43.56399" lon="6.3759">
        <ele>499.7</ele>
        <time>2025-01-29T13:24:16.000Z</time>
      </trkpt>
      <trkpt lat="43.56393" lon="6.37599">
        <ele>499.1</ele>
        <time>2025-01-29T13:24:24.000Z</time>
      </trkpt>
      <trkpt lat="43.56387" lon="6.3761">
        <ele>498.5</ele>
        <time>2025-01-29T13:24:33.000Z</time>
      </trkpt>
      <trkpt lat="43.56381" lon="6.3762">
        <ele>498</ele>
        <time>2025-01-29T13:24:43.000Z</time>
      </trkpt>
      <trkpt lat="43.56376" lon="6.3763">
        <ele>496.7</ele>
        <time>2025-01-29T13:24:57.000Z</time>
      </trkpt>
      <trkpt lat="43.56372" lon="6.37642">
        <ele>495.5</ele>
        <time>2025-01-29T13:25:09.000Z</time>
      </trkpt>
      <trkpt lat="43.56368" lon="6.37653">
        <ele>494.6</ele>
        <time>2025-01-29T13:25:18.000Z</time>
      </trkpt>
      <trkpt lat="43.56363" lon="6.37665">
        <ele>493.3</ele>
        <time>2025-01-29T13:25:29.000Z</time>
      </trkpt>
      <trkpt lat="43.56358" lon="6.37676">
        <ele>492.3</ele>
        <time>2025-01-29T13:25:42.000Z</time>
      </trkpt>
      <trkpt lat="43.56357" lon="6.37689">
        <ele>491.6</ele>
        <time>2025-01-29T13:25:51.000Z</time>
      </trkpt>
      <trkpt lat="43.56354" lon="6.37701">
        <ele>490.6</ele>
        <time>2025-01-29T13:26:01.000Z</time>
      </trkpt>
      <trkpt lat="43.5635" lon="6.37713">
        <ele>489.9</ele>
        <time>2025-01-29T13:26:08.000Z</time>
      </trkpt>
      <trkpt lat="43.56346" lon="6.37724">
        <ele>489.1</ele>
        <time>2025-01-29T13:26:17.000Z</time>
      </trkpt>
      <trkpt lat="43.56342" lon="6.37736">
        <ele>488.4</ele>
        <time>2025-01-29T13:26:26.000Z</time>
      </trkpt>
      <trkpt lat="43.5634" lon="6.37748">
        <ele>487.4</ele>
        <time>2025-01-29T13:26:38.000Z</time>
      </trkpt>
      <trkpt lat="43.56336" lon="6.3776">
        <ele>486.4</ele>
        <time>2025-01-29T13:26:49.000Z</time>
      </trkpt>
      <trkpt lat="43.56334" lon="6.37773">
        <ele>485.6</ele>
        <time>2025-01-29T13:26:58.000Z</time>
      </trkpt>
      <trkpt lat="43.5633" lon="6.37785">
        <ele>485</ele>
        <time>2025-01-29T13:27:07.000Z</time>
      </trkpt>
      <trkpt lat="43.56329" lon="6.37798">
        <ele>483.9</ele>
        <time>2025-01-29T13:27:18.000Z</time>
      </trkpt>
      <trkpt lat="43.56325" lon="6.37809">
        <ele>482.7</ele>
        <time>2025-01-29T13:27:28.000Z</time>
      </trkpt>
      <trkpt lat="43.56323" lon="6.37823">
        <ele>482</ele>
        <time>2025-01-29T13:27:36.000Z</time>
      </trkpt>
      <trkpt lat="43.56322" lon="6.37836">
        <ele>481</ele>
        <time>2025-01-29T13:27:46.000Z</time>
      </trkpt>
      <trkpt lat="43.5632" lon="6.37849">
        <ele>480.1</ele>
        <time>2025-01-29T13:27:54.000Z</time>
      </trkpt>
      <trkpt lat="43.56318" lon="6.37862">
        <ele>479.2</ele>
        <time>2025-01-29T13:28:02.000Z</time>
      </trkpt>
      <trkpt lat="43.56315" lon="6.37874">
        <ele>478.4</ele>
        <time>2025-01-29T13:28:10.000Z</time>
      </trkpt>
      <trkpt lat="43.56306" lon="6.37877">
        <ele>477.8</ele>
        <time>2025-01-29T13:28:16.000Z</time>
      </trkpt>
      <trkpt lat="43.56298" lon="6.37885">
        <ele>476.8</ele>
        <time>2025-01-29T13:28:25.000Z</time>
      </trkpt>
      <trkpt lat="43.5629" lon="6.37892">
        <ele>476.1</ele>
        <time>2025-01-29T13:28:33.000Z</time>
      </trkpt>
      <trkpt lat="43.56283" lon="6.37902">
        <ele>475</ele>
        <time>2025-01-29T13:28:45.000Z</time>
      </trkpt>
      <trkpt lat="43.56281" lon="6.37914">
        <ele>473.5</ele>
        <time>2025-01-29T13:28:55.000Z</time>
      </trkpt>
      <trkpt lat="43.56278" lon="6.37928">
        <ele>472</ele>
        <time>2025-01-29T13:29:05.000Z</time>
      </trkpt>
      <trkpt lat="43.56272" lon="6.37939">
        <ele>470.2</ele>
        <time>2025-01-29T13:29:15.000Z</time>
      </trkpt>
      <trkpt lat="43.56267" lon="6.3795">
        <ele>468.8</ele>
        <time>2025-01-29T13:29:25.000Z</time>
      </trkpt>
      <trkpt lat="43.56259" lon="6.37958">
        <ele>467.6</ele>
        <time>2025-01-29T13:29:34.000Z</time>
      </trkpt>
      <trkpt lat="43.56251" lon="6.37964">
        <ele>466.7</ele>
        <time>2025-01-29T13:29:40.000Z</time>
      </trkpt>
      <trkpt lat="43.56243" lon="6.37971">
        <ele>465.8</ele>
        <time>2025-01-29T13:29:47.000Z</time>
      </trkpt>
      <trkpt lat="43.56234" lon="6.37978">
        <ele>464.5</ele>
        <time>2025-01-29T13:29:55.000Z</time>
      </trkpt>
      <trkpt lat="43.56226" lon="6.37986">
        <ele>463.4</ele>
        <time>2025-01-29T13:30:04.000Z</time>
      </trkpt>
      <trkpt lat="43.5622" lon="6.37996">
        <ele>462.1</ele>
        <time>2025-01-29T13:30:14.000Z</time>
      </trkpt>
      <trkpt lat="43.56215" lon="6.38006">
        <ele>461.1</ele>
        <time>2025-01-29T13:30:24.000Z</time>
      </trkpt>
      <trkpt lat="43.56208" lon="6.38015">
        <ele>460.2</ele>
        <time>2025-01-29T13:30:34.000Z</time>
      </trkpt>
      <trkpt lat="43.56203" lon="6.38026">
        <ele>458.6</ele>
        <time>2025-01-29T13:30:44.000Z</time>
      </trkpt>
      <trkpt lat="43.56198" lon="6.38037">
        <ele>457</ele>
        <time>2025-01-29T13:30:53.000Z</time>
      </trkpt>
      <trkpt lat="43.56191" lon="6.38046">
        <ele>456</ele>
        <time>2025-01-29T13:31:02.000Z</time>
      </trkpt>
      <trkpt lat="43.56183" lon="6.3805">
        <ele>455.2</ele>
        <time>2025-01-29T13:31:11.000Z</time>
      </trkpt>
      <trkpt lat="43.56175" lon="6.38057">
        <ele>453.7</ele>
        <time>2025-01-29T13:31:21.000Z</time>
      </trkpt>
      <trkpt lat="43.56173" lon="6.38071">
        <ele>452.3</ele>
        <time>2025-01-29T13:31:32.000Z</time>
      </trkpt>
      <trkpt lat="43.56172" lon="6.38083">
        <ele>451.9</ele>
        <time>2025-01-29T13:31:42.000Z</time>
      </trkpt>
      <trkpt lat="43.56173" lon="6.38096">
        <ele>452.2</ele>
        <time>2025-01-29T13:32:27.000Z</time>
      </trkpt>
      <trkpt lat="43.56165" lon="6.38102">
        <ele>452.2</ele>
        <time>2025-01-29T13:32:36.000Z</time>
      </trkpt>
      <trkpt lat="43.56158" lon="6.38111">
        <ele>451.7</ele>
        <time>2025-01-29T13:32:48.000Z</time>
      </trkpt>
      <trkpt lat="43.5615" lon="6.38119">
        <ele>450.3</ele>
        <time>2025-01-29T13:32:59.000Z</time>
      </trkpt>
      <trkpt lat="43.56145" lon="6.38129">
        <ele>448.9</ele>
        <time>2025-01-29T13:33:10.000Z</time>
      </trkpt>
      <trkpt lat="43.56139" lon="6.38139">
        <ele>447.5</ele>
        <time>2025-01-29T13:33:21.000Z</time>
      </trkpt>
      <trkpt lat="43.56131" lon="6.38147">
        <ele>445.9</ele>
        <time>2025-01-29T13:33:30.000Z</time>
      </trkpt>
      <trkpt lat="43.56123" lon="6.38142">
        <ele>443.8</ele>
        <time>2025-01-29T13:33:42.000Z</time>
      </trkpt>
      <trkpt lat="43.56121" lon="6.38128">
        <ele>442.8</ele>
        <time>2025-01-29T13:33:51.000Z</time>
      </trkpt>
      <trkpt lat="43.5612" lon="6.38116">
        <ele>442.2</ele>
        <time>2025-01-29T13:33:59.000Z</time>
      </trkpt>
      <trkpt lat="43.56115" lon="6.38105">
        <ele>441.7</ele>
        <time>2025-01-29T13:34:08.000Z</time>
      </trkpt>
      <trkpt lat="43.56108" lon="6.38095">
        <ele>441.3</ele>
        <time>2025-01-29T13:34:17.000Z</time>
      </trkpt>
      <trkpt lat="43.56106" lon="6.38083">
        <ele>441</ele>
        <time>2025-01-29T13:34:33.000Z</time>
      </trkpt>
      <trkpt lat="43.56101" lon="6.38071">
        <ele>440.9</ele>
        <time>2025-01-29T13:35:09.000Z</time>
      </trkpt>
      <trkpt lat="43.56093" lon="6.38066">
        <ele>440.2</ele>
        <time>2025-01-29T13:35:18.000Z</time>
      </trkpt>
      <trkpt lat="43.56085" lon="6.38059">
        <ele>439.6</ele>
        <time>2025-01-29T13:35:42.000Z</time>
      </trkpt>
      <trkpt lat="43.56079" lon="6.3805">
        <ele>439.6</ele>
        <time>2025-01-29T13:36:30.000Z</time>
      </trkpt>
      <trkpt lat="43.56071" lon="6.38043">
        <ele>439.1</ele>
        <time>2025-01-29T13:36:47.000Z</time>
      </trkpt>
      <trkpt lat="43.56063" lon="6.38035">
        <ele>438.9</ele>
        <time>2025-01-29T13:36:56.000Z</time>
      </trkpt>
      <trkpt lat="43.56059" lon="6.38024">
        <ele>438.8</ele>
        <time>2025-01-29T13:37:06.000Z</time>
      </trkpt>
      <trkpt lat="43.5606" lon="6.38011">
        <ele>438.6</ele>
        <time>2025-01-29T13:37:15.000Z</time>
      </trkpt>
      <trkpt lat="43.56062" lon="6.37998">
        <ele>438.5</ele>
        <time>2025-01-29T13:37:25.000Z</time>
      </trkpt>
      <trkpt lat="43.56062" lon="6.37985">
        <ele>438.8</ele>
        <time>2025-01-29T13:37:48.000Z</time>
      </trkpt>
      <trkpt lat="43.56063" lon="6.37972">
        <ele>439.2</ele>
        <time>2025-01-29T13:37:59.000Z</time>
      </trkpt>
      <trkpt lat="43.56065" lon="6.3796">
        <ele>439.1</ele>
        <time>2025-01-29T13:38:08.000Z</time>
      </trkpt>
      <trkpt lat="43.56066" lon="6.37947">
        <ele>439.2</ele>
        <time>2025-01-29T13:38:17.000Z</time>
      </trkpt>
      <trkpt lat="43.56063" lon="6.37934">
        <ele>439.5</ele>
        <time>2025-01-29T13:38:29.000Z</time>
      </trkpt>
      <trkpt lat="43.56057" lon="6.37925">
        <ele>439.5</ele>
        <time>2025-01-29T13:38:37.000Z</time>
      </trkpt>
      <trkpt lat="43.5605" lon="6.37915">
        <ele>439.3</ele>
        <time>2025-01-29T13:38:46.000Z</time>
      </trkpt>
      <trkpt lat="43.56044" lon="6.37904">
        <ele>439.1</ele>
        <time>2025-01-29T13:38:55.000Z</time>
      </trkpt>
      <trkpt lat="43.56039" lon="6.37893">
        <ele>439</ele>
        <time>2025-01-29T13:39:04.000Z</time>
      </trkpt>
      <trkpt lat="43.56033" lon="6.37882">
        <ele>438.7</ele>
        <time>2025-01-29T13:39:13.000Z</time>
      </trkpt>
      <trkpt lat="43.56025" lon="6.37875">
        <ele>438.8</ele>
        <time>2025-01-29T13:39:21.000Z</time>
      </trkpt>
      <trkpt lat="43.56015" lon="6.37871">
        <ele>438.8</ele>
        <time>2025-01-29T13:39:30.000Z</time>
      </trkpt>
      <trkpt lat="43.56006" lon="6.37873">
        <ele>438.7</ele>
        <time>2025-01-29T13:39:39.000Z</time>
      </trkpt>
      <trkpt lat="43.55999" lon="6.37883">
        <ele>437.7</ele>
        <time>2025-01-29T13:39:50.000Z</time>
      </trkpt>
      <trkpt lat="43.55991" lon="6.3789">
        <ele>436.4</ele>
        <time>2025-01-29T13:40:00.000Z</time>
      </trkpt>
      <trkpt lat="43.55982" lon="6.3789">
        <ele>435.1</ele>
        <time>2025-01-29T13:40:12.000Z</time>
      </trkpt>
      <trkpt lat="43.55974" lon="6.37885">
        <ele>434.4</ele>
        <time>2025-01-29T13:40:22.000Z</time>
      </trkpt>
      <trkpt lat="43.55965" lon="6.37881">
        <ele>434.1</ele>
        <time>2025-01-29T13:40:30.000Z</time>
      </trkpt>
      <trkpt lat="43.55956" lon="6.37875">
        <ele>433.6</ele>
        <time>2025-01-29T13:40:37.000Z</time>
      </trkpt>
      <trkpt lat="43.55947" lon="6.3787">
        <ele>433.1</ele>
        <time>2025-01-29T13:40:45.000Z</time>
      </trkpt>
      <trkpt lat="43.55937" lon="6.37867">
        <ele>432.7</ele>
        <time>2025-01-29T13:40:55.000Z</time>
      </trkpt>
      <trkpt lat="43.5593" lon="6.37875">
        <ele>432.3</ele>
        <time>2025-01-29T13:41:05.000Z</time>
      </trkpt>
      <trkpt lat="43.55925" lon="6.37886">
        <ele>431.8</ele>
        <time>2025-01-29T13:41:15.000Z</time>
      </trkpt>
      <trkpt lat="43.55919" lon="6.37896">
        <ele>431</ele>
        <time>2025-01-29T13:41:24.000Z</time>
      </trkpt>
      <trkpt lat="43.55913" lon="6.37906">
        <ele>430.5</ele>
        <time>2025-01-29T13:41:33.000Z</time>
      </trkpt>
      <trkpt lat="43.55908" lon="6.37919">
        <ele>430.1</ele>
        <time>2025-01-29T13:41:43.000Z</time>
      </trkpt>
      <trkpt lat="43.55901" lon="6.37927">
        <ele>430</ele>
        <time>2025-01-29T13:41:49.000Z</time>
      </trkpt>
      <trkpt lat="43.55895" lon="6.37938">
        <ele>429.7</ele>
        <time>2025-01-29T13:41:57.000Z</time>
      </trkpt>
      <trkpt lat="43.55889" lon="6.37949">
        <ele>429.3</ele>
        <time>2025-01-29T13:42:05.000Z</time>
      </trkpt>
      <trkpt lat="43.55883" lon="6.3796">
        <ele>429</ele>
        <time>2025-01-29T13:42:14.000Z</time>
      </trkpt>
      <trkpt lat="43.5588" lon="6.37973">
        <ele>428.9</ele>
        <time>2025-01-29T13:42:22.000Z</time>
      </trkpt>
      <trkpt lat="43.55878" lon="6.37985">
        <ele>428.8</ele>
        <time>2025-01-29T13:42:29.000Z</time>
      </trkpt>
      <trkpt lat="43.55876" lon="6.37997">
        <ele>428.9</ele>
        <time>2025-01-29T13:42:37.000Z</time>
      </trkpt>
      <trkpt lat="43.55873" lon="6.3801">
        <ele>428.7</ele>
        <time>2025-01-29T13:42:46.000Z</time>
      </trkpt>
      <trkpt lat="43.55869" lon="6.38022">
        <ele>428.3</ele>
        <time>2025-01-29T13:42:55.000Z</time>
      </trkpt>
      <trkpt lat="43.55866" lon="6.38034">
        <ele>429</ele>
        <time>2025-01-29T13:43:22.000Z</time>
      </trkpt>
      <trkpt lat="43.55865" lon="6.38047">
        <ele>429</ele>
        <time>2025-01-29T13:43:33.000Z</time>
      </trkpt>
      <trkpt lat="43.55863" lon="6.38059">
        <ele>429</ele>
        <time>2025-01-29T13:43:44.000Z</time>
      </trkpt>
      <trkpt lat="43.5586" lon="6.38072">
        <ele>429</ele>
        <time>2025-01-29T13:43:54.000Z</time>
      </trkpt>
      <trkpt lat="43.55859" lon="6.38084">
        <ele>429.1</ele>
        <time>2025-01-29T13:44:02.000Z</time>
      </trkpt>
      <trkpt lat="43.55857" lon="6.38097">
        <ele>429.4</ele>
        <time>2025-01-29T13:44:10.000Z</time>
      </trkpt>
      <trkpt lat="43.55856" lon="6.3811">
        <ele>429.6</ele>
        <time>2025-01-29T13:44:18.000Z</time>
      </trkpt>
      <trkpt lat="43.55853" lon="6.38123">
        <ele>429.7</ele>
        <time>2025-01-29T13:44:27.000Z</time>
      </trkpt>
      <trkpt lat="43.55849" lon="6.38134">
        <ele>429.8</ele>
        <time>2025-01-29T13:44:36.000Z</time>
      </trkpt>
      <trkpt lat="43.55847" lon="6.38147">
        <ele>430.1</ele>
        <time>2025-01-29T13:44:45.000Z</time>
      </trkpt>
      <trkpt lat="43.55843" lon="6.38158">
        <ele>430.4</ele>
        <time>2025-01-29T13:44:53.000Z</time>
      </trkpt>
      <trkpt lat="43.55838" lon="6.38169">
        <ele>430.6</ele>
        <time>2025-01-29T13:45:01.000Z</time>
      </trkpt>
      <trkpt lat="43.55832" lon="6.38179">
        <ele>430.8</ele>
        <time>2025-01-29T13:45:10.000Z</time>
      </trkpt>
      <trkpt lat="43.55827" lon="6.3819">
        <ele>431.1</ele>
        <time>2025-01-29T13:45:18.000Z</time>
      </trkpt>
      <trkpt lat="43.55822" lon="6.382">
        <ele>431.3</ele>
        <time>2025-01-29T13:45:25.000Z</time>
      </trkpt>
      <trkpt lat="43.55817" lon="6.38212">
        <ele>431.3</ele>
        <time>2025-01-29T13:45:33.000Z</time>
      </trkpt>
      <trkpt lat="43.55812" lon="6.38223">
        <ele>431.3</ele>
        <time>2025-01-29T13:45:41.000Z</time>
      </trkpt>
      <trkpt lat="43.55805" lon="6.38232">
        <ele>431.3</ele>
        <time>2025-01-29T13:45:49.000Z</time>
      </trkpt>
      <trkpt lat="43.558" lon="6.38244">
        <ele>431.2</ele>
        <time>2025-01-29T13:45:58.000Z</time>
      </trkpt>
      <trkpt lat="43.55796" lon="6.38255">
        <ele>430.8</ele>
        <time>2025-01-29T13:46:12.000Z</time>
      </trkpt>
      <trkpt lat="43.55789" lon="6.38264">
        <ele>429.5</ele>
        <time>2025-01-29T13:46:29.000Z</time>
      </trkpt>
      <trkpt lat="43.5578" lon="6.38267">
        <ele>428.5</ele>
        <time>2025-01-29T13:46:38.000Z</time>
      </trkpt>
      <trkpt lat="43.55772" lon="6.38275">
        <ele>427.6</ele>
        <time>2025-01-29T13:46:48.000Z</time>
      </trkpt>
      <trkpt lat="43.55764" lon="6.38279">
        <ele>427</ele>
        <time>2025-01-29T13:46:56.000Z</time>
      </trkpt>
      <trkpt lat="43.55755" lon="6.38285">
        <ele>426.6</ele>
        <time>2025-01-29T13:47:06.000Z</time>
      </trkpt>
      <trkpt lat="43.55746" lon="6.38289">
        <ele>426.5</ele>
        <time>2025-01-29T13:47:14.000Z</time>
      </trkpt>
      <trkpt lat="43.55737" lon="6.38292">
        <ele>426.7</ele>
        <time>2025-01-29T13:47:22.000Z</time>
      </trkpt>
      <trkpt lat="43.55728" lon="6.38295">
        <ele>426.9</ele>
        <time>2025-01-29T13:47:29.000Z</time>
      </trkpt>
      <trkpt lat="43.55719" lon="6.38298">
        <ele>427.1</ele>
        <time>2025-01-29T13:47:36.000Z</time>
      </trkpt>
      <trkpt lat="43.55709" lon="6.383">
        <ele>427.4</ele>
        <time>2025-01-29T13:47:44.000Z</time>
      </trkpt>
      <trkpt lat="43.55699" lon="6.38304">
        <ele>427.6</ele>
        <time>2025-01-29T13:47:53.000Z</time>
      </trkpt>
      <trkpt lat="43.55689" lon="6.38307">
        <ele>427.5</ele>
        <time>2025-01-29T13:48:01.000Z</time>
      </trkpt>
      <trkpt lat="43.55679" lon="6.38311">
        <ele>427.2</ele>
        <time>2025-01-29T13:48:09.000Z</time>
      </trkpt>
      <trkpt lat="43.5567" lon="6.38315">
        <ele>426.8</ele>
        <time>2025-01-29T13:48:19.000Z</time>
      </trkpt>
      <trkpt lat="43.55661" lon="6.38319">
        <ele>426.2</ele>
        <time>2025-01-29T13:48:28.000Z</time>
      </trkpt>
      <trkpt lat="43.55653" lon="6.38325">
        <ele>425.8</ele>
        <time>2025-01-29T13:48:37.000Z</time>
      </trkpt>
      <trkpt lat="43.55644" lon="6.3833">
        <ele>425.6</ele>
        <time>2025-01-29T13:48:45.000Z</time>
      </trkpt>
      <trkpt lat="43.55636" lon="6.38336">
        <ele>425.3</ele>
        <time>2025-01-29T13:48:52.000Z</time>
      </trkpt>
      <trkpt lat="43.55627" lon="6.38343">
        <ele>424.9</ele>
        <time>2025-01-29T13:49:01.000Z</time>
      </trkpt>
      <trkpt lat="43.55619" lon="6.38349">
        <ele>424.8</ele>
        <time>2025-01-29T13:49:10.000Z</time>
      </trkpt>
      <trkpt lat="43.5561" lon="6.38356">
        <ele>425</ele>
        <time>2025-01-29T13:49:19.000Z</time>
      </trkpt>
      <trkpt lat="43.556" lon="6.38359">
        <ele>425.2</ele>
        <time>2025-01-29T13:49:26.000Z</time>
      </trkpt>
      <trkpt lat="43.5559" lon="6.38361">
        <ele>425.3</ele>
        <time>2025-01-29T13:49:34.000Z</time>
      </trkpt>
      <trkpt lat="43.5558" lon="6.38364">
        <ele>425.4</ele>
        <time>2025-01-29T13:49:44.000Z</time>
      </trkpt>
      <trkpt lat="43.55572" lon="6.38367">
        <ele>425.5</ele>
        <time>2025-01-29T13:49:52.000Z</time>
      </trkpt>
      <trkpt lat="43.55562" lon="6.3837">
        <ele>425.6</ele>
        <time>2025-01-29T13:50:02.000Z</time>
      </trkpt>
      <trkpt lat="43.55552" lon="6.38373">
        <ele>425.6</ele>
        <time>2025-01-29T13:50:09.000Z</time>
      </trkpt>
      <trkpt lat="43.55542" lon="6.38374">
        <ele>425.5</ele>
        <time>2025-01-29T13:50:15.000Z</time>
      </trkpt>
      <trkpt lat="43.55532" lon="6.38378">
        <ele>425.3</ele>
        <time>2025-01-29T13:50:24.000Z</time>
      </trkpt>
      <trkpt lat="43.55523" lon="6.38381">
        <ele>424.8</ele>
        <time>2025-01-29T13:50:33.000Z</time>
      </trkpt>
      <trkpt lat="43.55514" lon="6.38383">
        <ele>424.3</ele>
        <time>2025-01-29T13:50:41.000Z</time>
      </trkpt>
      <trkpt lat="43.55505" lon="6.38385">
        <ele>424</ele>
        <time>2025-01-29T13:50:50.000Z</time>
      </trkpt>
      <trkpt lat="43.55496" lon="6.38389">
        <ele>423.5</ele>
        <time>2025-01-29T13:50:58.000Z</time>
      </trkpt>
      <trkpt lat="43.55487" lon="6.38393">
        <ele>422.8</ele>
        <time>2025-01-29T13:51:07.000Z</time>
      </trkpt>
      <trkpt lat="43.55477" lon="6.38396">
        <ele>422.2</ele>
        <time>2025-01-29T13:51:15.000Z</time>
      </trkpt>
      <trkpt lat="43.55468" lon="6.38396">
        <ele>421.5</ele>
        <time>2025-01-29T13:51:23.000Z</time>
      </trkpt>
      <trkpt lat="43.55459" lon="6.38397">
        <ele>420.4</ele>
        <time>2025-01-29T13:51:33.000Z</time>
      </trkpt>
      <trkpt lat="43.55449" lon="6.38395">
        <ele>419.4</ele>
        <time>2025-01-29T13:51:43.000Z</time>
      </trkpt>
      <trkpt lat="43.55441" lon="6.38389">
        <ele>418</ele>
        <time>2025-01-29T13:52:57.000Z</time>
      </trkpt>
      <trkpt lat="43.55432" lon="6.38392">
        <ele>417.3</ele>
        <time>2025-01-29T13:57:35.000Z</time>
      </trkpt>
      <trkpt lat="43.55423" lon="6.38395">
        <ele>416.5</ele>
        <time>2025-01-29T13:57:44.000Z</time>
      </trkpt>
      <trkpt lat="43.55414" lon="6.38397">
        <ele>415.7</ele>
        <time>2025-01-29T13:57:54.000Z</time>
      </trkpt>
      <trkpt lat="43.55404" lon="6.384">
        <ele>414.8</ele>
        <time>2025-01-29T13:58:03.000Z</time>
      </trkpt>
      <trkpt lat="43.55396" lon="6.38405">
        <ele>413.9</ele>
        <time>2025-01-29T13:58:13.000Z</time>
      </trkpt>
      <trkpt lat="43.55386" lon="6.38409">
        <ele>413.2</ele>
        <time>2025-01-29T13:58:23.000Z</time>
      </trkpt>
      <trkpt lat="43.55377" lon="6.38412">
        <ele>412.7</ele>
        <time>2025-01-29T13:58:32.000Z</time>
      </trkpt>
      <trkpt lat="43.55368" lon="6.38418">
        <ele>411.7</ele>
        <time>2025-01-29T13:58:45.000Z</time>
      </trkpt>
      <trkpt lat="43.5536" lon="6.38421">
        <ele>410.9</ele>
        <time>2025-01-29T13:58:55.000Z</time>
      </trkpt>
      <trkpt lat="43.55351" lon="6.38427">
        <ele>410.3</ele>
        <time>2025-01-29T13:59:06.000Z</time>
      </trkpt>
      <trkpt lat="43.55343" lon="6.38432">
        <ele>409.5</ele>
        <time>2025-01-29T13:59:16.000Z</time>
      </trkpt>
      <trkpt lat="43.55335" lon="6.38439">
        <ele>408.6</ele>
        <time>2025-01-29T13:59:24.000Z</time>
      </trkpt>
      <trkpt lat="43.55329" lon="6.38449">
        <ele>407.8</ele>
        <time>2025-01-29T13:59:34.000Z</time>
      </trkpt>
      <trkpt lat="43.55322" lon="6.38458">
        <ele>407.1</ele>
        <time>2025-01-29T13:59:44.000Z</time>
      </trkpt>
      <trkpt lat="43.55315" lon="6.38464">
        <ele>406.2</ele>
        <time>2025-01-29T13:59:55.000Z</time>
      </trkpt>
      <trkpt lat="43.55306" lon="6.3847">
        <ele>405.4</ele>
        <time>2025-01-29T14:00:05.000Z</time>
      </trkpt>
      <trkpt lat="43.55298" lon="6.38476">
        <ele>404.6</ele>
        <time>2025-01-29T14:00:14.000Z</time>
      </trkpt>
      <trkpt lat="43.55288" lon="6.38482">
        <ele>404.1</ele>
        <time>2025-01-29T14:00:22.000Z</time>
      </trkpt>
      <trkpt lat="43.5528" lon="6.38487">
        <ele>403.4</ele>
        <time>2025-01-29T14:00:30.000Z</time>
      </trkpt>
      <trkpt lat="43.55273" lon="6.38497">
        <ele>402.3</ele>
        <time>2025-01-29T14:00:42.000Z</time>
      </trkpt>
      <trkpt lat="43.55268" lon="6.38509">
        <ele>400.9</ele>
        <time>2025-01-29T14:00:57.000Z</time>
      </trkpt>
      <trkpt lat="43.55262" lon="6.38518">
        <ele>399.9</ele>
        <time>2025-01-29T14:01:07.000Z</time>
      </trkpt>
      <trkpt lat="43.55258" lon="6.38529">
        <ele>398.9</ele>
        <time>2025-01-29T14:01:17.000Z</time>
      </trkpt>
      <trkpt lat="43.55252" lon="6.3854">
        <ele>398.1</ele>
        <time>2025-01-29T14:01:26.000Z</time>
      </trkpt>
      <trkpt lat="43.55247" lon="6.3855">
        <ele>397.2</ele>
        <time>2025-01-29T14:01:36.000Z</time>
      </trkpt>
      <trkpt lat="43.55239" lon="6.38557">
        <ele>396.5</ele>
        <time>2025-01-29T14:01:46.000Z</time>
      </trkpt>
      <trkpt lat="43.55229" lon="6.38561">
        <ele>395.4</ele>
        <time>2025-01-29T14:01:56.000Z</time>
      </trkpt>
      <trkpt lat="43.55221" lon="6.38568">
        <ele>394.5</ele>
        <time>2025-01-29T14:02:05.000Z</time>
      </trkpt>
      <trkpt lat="43.55212" lon="6.38573">
        <ele>393.9</ele>
        <time>2025-01-29T14:02:15.000Z</time>
      </trkpt>
      <trkpt lat="43.55202" lon="6.38578">
        <ele>393.3</ele>
        <time>2025-01-29T14:02:26.000Z</time>
      </trkpt>
      <trkpt lat="43.55194" lon="6.38583">
        <ele>392.2</ele>
        <time>2025-01-29T14:02:37.000Z</time>
      </trkpt>
      <trkpt lat="43.55184" lon="6.38587">
        <ele>390.6</ele>
        <time>2025-01-29T14:02:48.000Z</time>
      </trkpt>
      <trkpt lat="43.55175" lon="6.3859">
        <ele>388.9</ele>
        <time>2025-01-29T14:02:58.000Z</time>
      </trkpt>
      <trkpt lat="43.55166" lon="6.38589">
        <ele>387.4</ele>
        <time>2025-01-29T14:03:08.000Z</time>
      </trkpt>
      <trkpt lat="43.55158" lon="6.38581">
        <ele>386.4</ele>
        <time>2025-01-29T14:03:17.000Z</time>
      </trkpt>
      <trkpt lat="43.55148" lon="6.38581">
        <ele>385.4</ele>
        <time>2025-01-29T14:03:26.000Z</time>
      </trkpt>
      <trkpt lat="43.55139" lon="6.38582">
        <ele>384.1</ele>
        <time>2025-01-29T14:03:36.000Z</time>
      </trkpt>
      <trkpt lat="43.55129" lon="6.38585">
        <ele>383.3</ele>
        <time>2025-01-29T14:03:45.000Z</time>
      </trkpt>
      <trkpt lat="43.5512" lon="6.38589">
        <ele>382.5</ele>
        <time>2025-01-29T14:03:52.000Z</time>
      </trkpt>
      <trkpt lat="43.55111" lon="6.38595">
        <ele>381.4</ele>
        <time>2025-01-29T14:04:03.000Z</time>
      </trkpt>
      <trkpt lat="43.55103" lon="6.386">
        <ele>381</ele>
        <time>2025-01-29T14:04:10.000Z</time>
      </trkpt>
      <trkpt lat="43.55094" lon="6.38607">
        <ele>380.6</ele>
        <time>2025-01-29T14:04:18.000Z</time>
      </trkpt>
      <trkpt lat="43.55087" lon="6.38616">
        <ele>380.2</ele>
        <time>2025-01-29T14:04:28.000Z</time>
      </trkpt>
      <trkpt lat="43.55079" lon="6.38624">
        <ele>380</ele>
        <time>2025-01-29T14:04:37.000Z</time>
      </trkpt>
      <trkpt lat="43.55073" lon="6.38633">
        <ele>379.9</ele>
        <time>2025-01-29T14:04:44.000Z</time>
      </trkpt>
      <trkpt lat="43.55065" lon="6.38643">
        <ele>379.9</ele>
        <time>2025-01-29T14:04:53.000Z</time>
      </trkpt>
      <trkpt lat="43.55057" lon="6.38649">
        <ele>379.8</ele>
        <time>2025-01-29T14:05:00.000Z</time>
      </trkpt>
      <trkpt lat="43.55048" lon="6.38655">
        <ele>379.7</ele>
        <time>2025-01-29T14:05:09.000Z</time>
      </trkpt>
      <trkpt lat="43.55038" lon="6.38659">
        <ele>379.8</ele>
        <time>2025-01-29T14:05:16.000Z</time>
      </trkpt>
      <trkpt lat="43.55029" lon="6.38661">
        <ele>379.5</ele>
        <time>2025-01-29T14:05:27.000Z</time>
      </trkpt>
      <trkpt lat="43.5502" lon="6.3866">
        <ele>379.3</ele>
        <time>2025-01-29T14:05:34.000Z</time>
      </trkpt>
      <trkpt lat="43.5501" lon="6.3866">
        <ele>379.1</ele>
        <time>2025-01-29T14:05:43.000Z</time>
      </trkpt>
      <trkpt lat="43.55001" lon="6.38662">
        <ele>378.7</ele>
        <time>2025-01-29T14:05:51.000Z</time>
      </trkpt>
      <trkpt lat="43.54991" lon="6.38663">
        <ele>378.2</ele>
        <time>2025-01-29T14:06:00.000Z</time>
      </trkpt>
      <trkpt lat="43.54982" lon="6.38663">
        <ele>377.7</ele>
        <time>2025-01-29T14:06:07.000Z</time>
      </trkpt>
      <trkpt lat="43.54973" lon="6.38665">
        <ele>377.2</ele>
        <time>2025-01-29T14:06:16.000Z</time>
      </trkpt>
      <trkpt lat="43.54964" lon="6.38665">
        <ele>376.9</ele>
        <time>2025-01-29T14:06:23.000Z</time>
      </trkpt>
      <trkpt lat="43.54955" lon="6.38666">
        <ele>376.6</ele>
        <time>2025-01-29T14:06:30.000Z</time>
      </trkpt>
      <trkpt lat="43.54946" lon="6.38672">
        <ele>376</ele>
        <time>2025-01-29T14:06:40.000Z</time>
      </trkpt>
      <trkpt lat="43.54941" lon="6.38683">
        <ele>374.7</ele>
        <time>2025-01-29T14:06:50.000Z</time>
      </trkpt>
      <trkpt lat="43.54934" lon="6.3869">
        <ele>373.9</ele>
        <time>2025-01-29T14:06:57.000Z</time>
      </trkpt>
      <trkpt lat="43.54926" lon="6.38696">
        <ele>372.7</ele>
        <time>2025-01-29T14:07:07.000Z</time>
      </trkpt>
      <trkpt lat="43.54917" lon="6.38701">
        <ele>371.5</ele>
        <time>2025-01-29T14:07:17.000Z</time>
      </trkpt>
      <trkpt lat="43.54907" lon="6.38705">
        <ele>370.4</ele>
        <time>2025-01-29T14:07:25.000Z</time>
      </trkpt>
      <trkpt lat="43.54899" lon="6.3871">
        <ele>369.6</ele>
        <time>2025-01-29T14:07:32.000Z</time>
      </trkpt>
      <trkpt lat="43.54891" lon="6.38717">
        <ele>368.4</ele>
        <time>2025-01-29T14:07:40.000Z</time>
      </trkpt>
      <trkpt lat="43.54883" lon="6.38724">
        <ele>367.4</ele>
        <time>2025-01-29T14:07:48.000Z</time>
      </trkpt>
      <trkpt lat="43.5488" lon="6.38737">
        <ele>366.6</ele>
        <time>2025-01-29T14:07:55.000Z</time>
      </trkpt>
      <trkpt lat="43.54874" lon="6.38748">
        <ele>366</ele>
        <time>2025-01-29T14:08:03.000Z</time>
      </trkpt>
      <trkpt lat="43.54869" lon="6.38758">
        <ele>365.4</ele>
        <time>2025-01-29T14:08:10.000Z</time>
      </trkpt>
      <trkpt lat="43.54864" lon="6.38769">
        <ele>364.5</ele>
        <time>2025-01-29T14:08:19.000Z</time>
      </trkpt>
      <trkpt lat="43.54855" lon="6.38774">
        <ele>363.6</ele>
        <time>2025-01-29T14:08:27.000Z</time>
      </trkpt>
      <trkpt lat="43.54846" lon="6.38775">
        <ele>362.9</ele>
        <time>2025-01-29T14:08:36.000Z</time>
      </trkpt>
      <trkpt lat="43.54836" lon="6.38774">
        <ele>362.6</ele>
        <time>2025-01-29T14:08:45.000Z</time>
      </trkpt>
      <trkpt lat="43.54827" lon="6.38773">
        <ele>362.4</ele>
        <time>2025-01-29T14:08:53.000Z</time>
      </trkpt>
      <trkpt lat="43.54819" lon="6.38781">
        <ele>362.2</ele>
        <time>2025-01-29T14:09:05.000Z</time>
      </trkpt>
      <trkpt lat="43.54812" lon="6.38792">
        <ele>362.2</ele>
        <time>2025-01-29T14:09:16.000Z</time>
      </trkpt>
      <trkpt lat="43.54804" lon="6.38799">
        <ele>362.2</ele>
        <time>2025-01-29T14:09:23.000Z</time>
      </trkpt>
      <trkpt lat="43.54796" lon="6.38808">
        <ele>362.3</ele>
        <time>2025-01-29T14:09:31.000Z</time>
      </trkpt>
      <trkpt lat="43.5479" lon="6.38817">
        <ele>362.4</ele>
        <time>2025-01-29T14:09:38.000Z</time>
      </trkpt>
      <trkpt lat="43.54782" lon="6.38827">
        <ele>362.5</ele>
        <time>2025-01-29T14:09:44.000Z</time>
      </trkpt>
      <trkpt lat="43.54776" lon="6.38836">
        <ele>362.1</ele>
        <time>2025-01-29T14:09:51.000Z</time>
      </trkpt>
      <trkpt lat="43.54771" lon="6.38847">
        <ele>361.8</ele>
        <time>2025-01-29T14:09:58.000Z</time>
      </trkpt>
      <trkpt lat="43.54765" lon="6.38859">
        <ele>361.3</ele>
        <time>2025-01-29T14:10:06.000Z</time>
      </trkpt>
      <trkpt lat="43.54761" lon="6.38871">
        <ele>360</ele>
        <time>2025-01-29T14:10:15.000Z</time>
      </trkpt>
      <trkpt lat="43.54757" lon="6.38883">
        <ele>359</ele>
        <time>2025-01-29T14:10:22.000Z</time>
      </trkpt>
      <trkpt lat="43.54751" lon="6.38894">
        <ele>358.2</ele>
        <time>2025-01-29T14:10:30.000Z</time>
      </trkpt>
      <trkpt lat="43.54744" lon="6.38904">
        <ele>357.4</ele>
        <time>2025-01-29T14:10:37.000Z</time>
      </trkpt>
      <trkpt lat="43.54738" lon="6.38914">
        <ele>356.8</ele>
        <time>2025-01-29T14:10:46.000Z</time>
      </trkpt>
      <trkpt lat="43.54735" lon="6.38927">
        <ele>356.2</ele>
        <time>2025-01-29T14:10:58.000Z</time>
      </trkpt>
      <trkpt lat="43.5473" lon="6.38938">
        <ele>355.7</ele>
        <time>2025-01-29T14:11:07.000Z</time>
      </trkpt>
      <trkpt lat="43.54723" lon="6.38948">
        <ele>355.3</ele>
        <time>2025-01-29T14:11:14.000Z</time>
      </trkpt>
      <trkpt lat="43.54715" lon="6.38957">
        <ele>354.9</ele>
        <time>2025-01-29T14:11:20.000Z</time>
      </trkpt>
      <trkpt lat="43.54709" lon="6.38966">
        <ele>354.5</ele>
        <time>2025-01-29T14:11:27.000Z</time>
      </trkpt>
      <trkpt lat="43.54703" lon="6.38977">
        <ele>353.9</ele>
        <time>2025-01-29T14:11:35.000Z</time>
      </trkpt>
      <trkpt lat="43.54696" lon="6.38986">
        <ele>353.4</ele>
        <time>2025-01-29T14:11:42.000Z</time>
      </trkpt>
      <trkpt lat="43.54691" lon="6.38997">
        <ele>353.1</ele>
        <time>2025-01-29T14:11:51.000Z</time>
      </trkpt>
      <trkpt lat="43.54683" lon="6.39005">
        <ele>352.8</ele>
        <time>2025-01-29T14:11:57.000Z</time>
      </trkpt>
      <trkpt lat="43.54677" lon="6.39015">
        <ele>352.3</ele>
        <time>2025-01-29T14:12:05.000Z</time>
      </trkpt>
      <trkpt lat="43.54671" lon="6.39025">
        <ele>351.9</ele>
        <time>2025-01-29T14:12:14.000Z</time>
      </trkpt>
      <trkpt lat="43.54666" lon="6.39036">
        <ele>351.7</ele>
        <time>2025-01-29T14:12:21.000Z</time>
      </trkpt>
      <trkpt lat="43.54663" lon="6.39047">
        <ele>351.8</ele>
        <time>2025-01-29T14:12:29.000Z</time>
      </trkpt>
      <trkpt lat="43.54656" lon="6.39057">
        <ele>351.9</ele>
        <time>2025-01-29T14:12:38.000Z</time>
      </trkpt>
      <trkpt lat="43.5465" lon="6.39068">
        <ele>352</ele>
        <time>2025-01-29T14:12:46.000Z</time>
      </trkpt>
      <trkpt lat="43.54642" lon="6.39075">
        <ele>352</ele>
        <time>2025-01-29T14:12:52.000Z</time>
      </trkpt>
      <trkpt lat="43.54634" lon="6.39083">
        <ele>352.1</ele>
        <time>2025-01-29T14:12:59.000Z</time>
      </trkpt>
      <trkpt lat="43.54624" lon="6.3909">
        <ele>352</ele>
        <time>2025-01-29T14:13:06.000Z</time>
      </trkpt>
      <trkpt lat="43.54615" lon="6.39096">
        <ele>351.8</ele>
        <time>2025-01-29T14:13:13.000Z</time>
      </trkpt>
      <trkpt lat="43.54606" lon="6.391">
        <ele>351.6</ele>
        <time>2025-01-29T14:13:21.000Z</time>
      </trkpt>
      <trkpt lat="43.54597" lon="6.39106">
        <ele>351.3</ele>
        <time>2025-01-29T14:13:29.000Z</time>
      </trkpt>
      <trkpt lat="43.54588" lon="6.39111">
        <ele>351.1</ele>
        <time>2025-01-29T14:13:37.000Z</time>
      </trkpt>
      <trkpt lat="43.5458" lon="6.39117">
        <ele>350.5</ele>
        <time>2025-01-29T14:13:45.000Z</time>
      </trkpt>
      <trkpt lat="43.54572" lon="6.39124">
        <ele>350.1</ele>
        <time>2025-01-29T14:13:54.000Z</time>
      </trkpt>
      <trkpt lat="43.54563" lon="6.39129">
        <ele>349.7</ele>
        <time>2025-01-29T14:14:01.000Z</time>
      </trkpt>
      <trkpt lat="43.54553" lon="6.3913">
        <ele>348.5</ele>
        <time>2025-01-29T14:14:10.000Z</time>
      </trkpt>
      <trkpt lat="43.54544" lon="6.39128">
        <ele>347.9</ele>
        <time>2025-01-29T14:14:17.000Z</time>
      </trkpt>
      <trkpt lat="43.54534" lon="6.39127">
        <ele>347.2</ele>
        <time>2025-01-29T14:14:23.000Z</time>
      </trkpt>
      <trkpt lat="43.54525" lon="6.39124">
        <ele>346.6</ele>
        <time>2025-01-29T14:14:29.000Z</time>
      </trkpt>
      <trkpt lat="43.54515" lon="6.39121">
        <ele>346.1</ele>
        <time>2025-01-29T14:14:36.000Z</time>
      </trkpt>
      <trkpt lat="43.54507" lon="6.39116">
        <ele>345.6</ele>
        <time>2025-01-29T14:14:43.000Z</time>
      </trkpt>
      <trkpt lat="43.54499" lon="6.3911">
        <ele>345.1</ele>
        <time>2025-01-29T14:14:50.000Z</time>
      </trkpt>
      <trkpt lat="43.5449" lon="6.39104">
        <ele>344.8</ele>
        <time>2025-01-29T14:14:57.000Z</time>
      </trkpt>
      <trkpt lat="43.54481" lon="6.39098">
        <ele>344.6</ele>
        <time>2025-01-29T14:15:05.000Z</time>
      </trkpt>
      <trkpt lat="43.54472" lon="6.39093">
        <ele>344.5</ele>
        <time>2025-01-29T14:15:12.000Z</time>
      </trkpt>
      <trkpt lat="43.54463" lon="6.3909">
        <ele>344.5</ele>
        <time>2025-01-29T14:15:19.000Z</time>
      </trkpt>
      <trkpt lat="43.54453" lon="6.39092">
        <ele>344.3</ele>
        <time>2025-01-29T14:15:26.000Z</time>
      </trkpt>
      <trkpt lat="43.54443" lon="6.39096">
        <ele>344.3</ele>
        <time>2025-01-29T14:15:34.000Z</time>
      </trkpt>
      <trkpt lat="43.54434" lon="6.39099">
        <ele>344.3</ele>
        <time>2025-01-29T14:15:41.000Z</time>
      </trkpt>
      <trkpt lat="43.54425" lon="6.39099">
        <ele>344.5</ele>
        <time>2025-01-29T14:15:48.000Z</time>
      </trkpt>
      <trkpt lat="43.54415" lon="6.39099">
        <ele>344.9</ele>
        <time>2025-01-29T14:15:55.000Z</time>
      </trkpt>
      <trkpt lat="43.54406" lon="6.39099">
        <ele>345.3</ele>
        <time>2025-01-29T14:16:03.000Z</time>
      </trkpt>
      <trkpt lat="43.54396" lon="6.39099">
        <ele>345.8</ele>
        <time>2025-01-29T14:16:11.000Z</time>
      </trkpt>
      <trkpt lat="43.54386" lon="6.39099">
        <ele>346.3</ele>
        <time>2025-01-29T14:16:19.000Z</time>
      </trkpt>
      <trkpt lat="43.54377" lon="6.39101">
        <ele>346.9</ele>
        <time>2025-01-29T14:16:27.000Z</time>
      </trkpt>
      <trkpt lat="43.54369" lon="6.39109">
        <ele>347.7</ele>
        <time>2025-01-29T14:16:37.000Z</time>
      </trkpt>
      <trkpt lat="43.54365" lon="6.3912">
        <ele>347.7</ele>
        <time>2025-01-29T14:16:47.000Z</time>
      </trkpt>
      <trkpt lat="43.5436" lon="6.39132">
        <ele>347.3</ele>
        <time>2025-01-29T14:16:56.000Z</time>
      </trkpt>
      <trkpt lat="43.54352" lon="6.39142">
        <ele>347.1</ele>
        <time>2025-01-29T14:17:04.000Z</time>
      </trkpt>
      <trkpt lat="43.54345" lon="6.39151">
        <ele>346.7</ele>
        <time>2025-01-29T14:17:12.000Z</time>
      </trkpt>
      <trkpt lat="43.54338" lon="6.39161">
        <ele>345.9</ele>
        <time>2025-01-29T14:17:19.000Z</time>
      </trkpt>
      <trkpt lat="43.54331" lon="6.39172">
        <ele>345.2</ele>
        <time>2025-01-29T14:17:27.000Z</time>
      </trkpt>
      <trkpt lat="43.54325" lon="6.39183">
        <ele>344.3</ele>
        <time>2025-01-29T14:17:36.000Z</time>
      </trkpt>
      <trkpt lat="43.54318" lon="6.39192">
        <ele>343.7</ele>
        <time>2025-01-29T14:17:44.000Z</time>
      </trkpt>
      <trkpt lat="43.54311" lon="6.39201">
        <ele>343.2</ele>
        <time>2025-01-29T14:17:52.000Z</time>
      </trkpt>
      <trkpt lat="43.54302" lon="6.39208">
        <ele>342.6</ele>
        <time>2025-01-29T14:18:00.000Z</time>
      </trkpt>
      <trkpt lat="43.54292" lon="6.3921">
        <ele>341.9</ele>
        <time>2025-01-29T14:18:08.000Z</time>
      </trkpt>
      <trkpt lat="43.54283" lon="6.39213">
        <ele>341.2</ele>
        <time>2025-01-29T14:18:14.000Z</time>
      </trkpt>
      <trkpt lat="43.54274" lon="6.39214">
        <ele>340.4</ele>
        <time>2025-01-29T14:18:21.000Z</time>
      </trkpt>
      <trkpt lat="43.54264" lon="6.39215">
        <ele>339.8</ele>
        <time>2025-01-29T14:18:29.000Z</time>
      </trkpt>
      <trkpt lat="43.54254" lon="6.39216">
        <ele>338.8</ele>
        <time>2025-01-29T14:18:37.000Z</time>
      </trkpt>
      <trkpt lat="43.54245" lon="6.39215">
        <ele>337.9</ele>
        <time>2025-01-29T14:18:45.000Z</time>
      </trkpt>
      <trkpt lat="43.54235" lon="6.39215">
        <ele>336.9</ele>
        <time>2025-01-29T14:18:53.000Z</time>
      </trkpt>
      <trkpt lat="43.54226" lon="6.39214">
        <ele>335.5</ele>
        <time>2025-01-29T14:19:02.000Z</time>
      </trkpt>
      <trkpt lat="43.54216" lon="6.39214">
        <ele>334.4</ele>
        <time>2025-01-29T14:19:11.000Z</time>
      </trkpt>
      <trkpt lat="43.54207" lon="6.39214">
        <ele>333.4</ele>
        <time>2025-01-29T14:19:19.000Z</time>
      </trkpt>
      <trkpt lat="43.54199" lon="6.3922">
        <ele>332.6</ele>
        <time>2025-01-29T14:19:28.000Z</time>
      </trkpt>
      <trkpt lat="43.54191" lon="6.39227">
        <ele>331.2</ele>
        <time>2025-01-29T14:19:39.000Z</time>
      </trkpt>
      <trkpt lat="43.54182" lon="6.39233">
        <ele>330.5</ele>
        <time>2025-01-29T14:19:47.000Z</time>
      </trkpt>
      <trkpt lat="43.54172" lon="6.39236">
        <ele>329.6</ele>
        <time>2025-01-29T14:19:56.000Z</time>
      </trkpt>
      <trkpt lat="43.54162" lon="6.39235">
        <ele>329.2</ele>
        <time>2025-01-29T14:20:03.000Z</time>
      </trkpt>
      <trkpt lat="43.54153" lon="6.39234">
        <ele>328.7</ele>
        <time>2025-01-29T14:20:10.000Z</time>
      </trkpt>
      <trkpt lat="43.54143" lon="6.39233">
        <ele>328.4</ele>
        <time>2025-01-29T14:20:17.000Z</time>
      </trkpt>
      <trkpt lat="43.54133" lon="6.39231">
        <ele>328.1</ele>
        <time>2025-01-29T14:20:25.000Z</time>
      </trkpt>
      <trkpt lat="43.54124" lon="6.39229">
        <ele>328.2</ele>
        <time>2025-01-29T14:20:32.000Z</time>
      </trkpt>
      <trkpt lat="43.54115" lon="6.39227">
        <ele>328.2</ele>
        <time>2025-01-29T14:20:39.000Z</time>
      </trkpt>
      <trkpt lat="43.54105" lon="6.39227">
        <ele>328</ele>
        <time>2025-01-29T14:20:47.000Z</time>
      </trkpt>
      <trkpt lat="43.54096" lon="6.39227">
        <ele>328.2</ele>
        <time>2025-01-29T14:20:56.000Z</time>
      </trkpt>
      <trkpt lat="43.54086" lon="6.39229">
        <ele>328.7</ele>
        <time>2025-01-29T14:21:06.000Z</time>
      </trkpt>
      <trkpt lat="43.54076" lon="6.39227">
        <ele>329.4</ele>
        <time>2025-01-29T14:21:15.000Z</time>
      </trkpt>
      <trkpt lat="43.54067" lon="6.3923">
        <ele>330</ele>
        <time>2025-01-29T14:21:25.000Z</time>
      </trkpt>
      <trkpt lat="43.54059" lon="6.39235">
        <ele>330.7</ele>
        <time>2025-01-29T14:21:37.000Z</time>
      </trkpt>
      <trkpt lat="43.54051" lon="6.39242">
        <ele>330.8</ele>
        <time>2025-01-29T14:21:46.000Z</time>
      </trkpt>
      <trkpt lat="43.54043" lon="6.3925">
        <ele>330.4</ele>
        <time>2025-01-29T14:21:55.000Z</time>
      </trkpt>
      <trkpt lat="43.54036" lon="6.39258">
        <ele>329.7</ele>
        <time>2025-01-29T14:22:03.000Z</time>
      </trkpt>
      <trkpt lat="43.54029" lon="6.39266">
        <ele>329.3</ele>
        <time>2025-01-29T14:22:11.000Z</time>
      </trkpt>
      <trkpt lat="43.54021" lon="6.39272">
        <ele>329</ele>
        <time>2025-01-29T14:22:18.000Z</time>
      </trkpt>
      <trkpt lat="43.54013" lon="6.3928">
        <ele>328.7</ele>
        <time>2025-01-29T14:22:26.000Z</time>
      </trkpt>
      <trkpt lat="43.54004" lon="6.39288">
        <ele>328.4</ele>
        <time>2025-01-29T14:22:33.000Z</time>
      </trkpt>
      <trkpt lat="43.53995" lon="6.39294">
        <ele>328.2</ele>
        <time>2025-01-29T14:22:40.000Z</time>
      </trkpt>
      <trkpt lat="43.53985" lon="6.39297">
        <ele>328</ele>
        <time>2025-01-29T14:22:48.000Z</time>
      </trkpt>
      <trkpt lat="43.53975" lon="6.39301">
        <ele>327.2</ele>
        <time>2025-01-29T14:22:56.000Z</time>
      </trkpt>
      <trkpt lat="43.53965" lon="6.39304">
        <ele>326.8</ele>
        <time>2025-01-29T14:23:01.000Z</time>
      </trkpt>
      <trkpt lat="43.53956" lon="6.39306">
        <ele>326.5</ele>
        <time>2025-01-29T14:23:08.000Z</time>
      </trkpt>
      <trkpt lat="43.53946" lon="6.39307">
        <ele>326.1</ele>
        <time>2025-01-29T14:23:15.000Z</time>
      </trkpt>
      <trkpt lat="43.53937" lon="6.3931">
        <ele>325.9</ele>
        <time>2025-01-29T14:23:22.000Z</time>
      </trkpt>
      <trkpt lat="43.53928" lon="6.39314">
        <ele>325.7</ele>
        <time>2025-01-29T14:23:30.000Z</time>
      </trkpt>
      <trkpt lat="43.53918" lon="6.39318">
        <ele>325.4</ele>
        <time>2025-01-29T14:23:37.000Z</time>
      </trkpt>
      <trkpt lat="43.5391" lon="6.39321">
        <ele>324.7</ele>
        <time>2025-01-29T14:23:44.000Z</time>
      </trkpt>
      <trkpt lat="43.53901" lon="6.39325">
        <ele>323.9</ele>
        <time>2025-01-29T14:23:51.000Z</time>
      </trkpt>
      <trkpt lat="43.53891" lon="6.39327">
        <ele>323.3</ele>
        <time>2025-01-29T14:24:00.000Z</time>
      </trkpt>
      <trkpt lat="43.53882" lon="6.3933">
        <ele>322.9</ele>
        <time>2025-01-29T14:24:07.000Z</time>
      </trkpt>
      <trkpt lat="43.53873" lon="6.39331">
        <ele>322.7</ele>
        <time>2025-01-29T14:24:14.000Z</time>
      </trkpt>
      <trkpt lat="43.53864" lon="6.39328">
        <ele>322.2</ele>
        <time>2025-01-29T14:24:23.000Z</time>
      </trkpt>
      <trkpt lat="43.53855" lon="6.39323">
        <ele>321.9</ele>
        <time>2025-01-29T14:24:31.000Z</time>
      </trkpt>
      <trkpt lat="43.53846" lon="6.39318">
        <ele>321.8</ele>
        <time>2025-01-29T14:24:39.000Z</time>
      </trkpt>
      <trkpt lat="43.53838" lon="6.39311">
        <ele>321.7</ele>
        <time>2025-01-29T14:24:47.000Z</time>
      </trkpt>
      <trkpt lat="43.5383" lon="6.39304">
        <ele>321.8</ele>
        <time>2025-01-29T14:24:55.000Z</time>
      </trkpt>
      <trkpt lat="43.53822" lon="6.39297">
        <ele>322.1</ele>
        <time>2025-01-29T14:25:03.000Z</time>
      </trkpt>
      <trkpt lat="43.53812" lon="6.39292">
        <ele>322.3</ele>
        <time>2025-01-29T14:25:11.000Z</time>
      </trkpt>
      <trkpt lat="43.53803" lon="6.39288">
        <ele>322.5</ele>
        <time>2025-01-29T14:25:19.000Z</time>
      </trkpt>
      <trkpt lat="43.53794" lon="6.39285">
        <ele>322.5</ele>
        <time>2025-01-29T14:25:27.000Z</time>
      </trkpt>
      <trkpt lat="43.53784" lon="6.39282">
        <ele>322.3</ele>
        <time>2025-01-29T14:25:35.000Z</time>
      </trkpt>
      <trkpt lat="43.53775" lon="6.3928">
        <ele>321.7</ele>
        <time>2025-01-29T14:25:43.000Z</time>
      </trkpt>
      <trkpt lat="43.53765" lon="6.39277">
        <ele>321</ele>
        <time>2025-01-29T14:25:51.000Z</time>
      </trkpt>
      <trkpt lat="43.53756" lon="6.39273">
        <ele>320.4</ele>
        <time>2025-01-29T14:25:59.000Z</time>
      </trkpt>
      <trkpt lat="43.53748" lon="6.39268">
        <ele>320.1</ele>
        <time>2025-01-29T14:26:07.000Z</time>
      </trkpt>
      <trkpt lat="43.53739" lon="6.39263">
        <ele>319.7</ele>
        <time>2025-01-29T14:26:15.000Z</time>
      </trkpt>
      <trkpt lat="43.5373" lon="6.39261">
        <ele>319.6</ele>
        <time>2025-01-29T14:26:23.000Z</time>
      </trkpt>
      <trkpt lat="43.53721" lon="6.39265">
        <ele>319.7</ele>
        <time>2025-01-29T14:26:32.000Z</time>
      </trkpt>
      <trkpt lat="43.53713" lon="6.39271">
        <ele>320.5</ele>
        <time>2025-01-29T14:26:42.000Z</time>
      </trkpt>
      <trkpt lat="43.53705" lon="6.39276">
        <ele>321.4</ele>
        <time>2025-01-29T14:26:52.000Z</time>
      </trkpt>
      <trkpt lat="43.53696" lon="6.3928">
        <ele>322.6</ele>
        <time>2025-01-29T14:27:02.000Z</time>
      </trkpt>
      <trkpt lat="43.53686" lon="6.39279">
        <ele>323.4</ele>
        <time>2025-01-29T14:27:12.000Z</time>
      </trkpt>
      <trkpt lat="43.53677" lon="6.39276">
        <ele>323.9</ele>
        <time>2025-01-29T14:27:20.000Z</time>
      </trkpt>
      <trkpt lat="43.53667" lon="6.39274">
        <ele>324.3</ele>
        <time>2025-01-29T14:27:29.000Z</time>
      </trkpt>
      <trkpt lat="43.53658" lon="6.39278">
        <ele>324.6</ele>
        <time>2025-01-29T14:27:39.000Z</time>
      </trkpt>
      <trkpt lat="43.5365" lon="6.39285">
        <ele>324.9</ele>
        <time>2025-01-29T14:27:47.000Z</time>
      </trkpt>
      <trkpt lat="43.53641" lon="6.39291">
        <ele>325.1</ele>
        <time>2025-01-29T14:27:55.000Z</time>
      </trkpt>
      <trkpt lat="43.53632" lon="6.39296">
        <ele>325.2</ele>
        <time>2025-01-29T14:28:03.000Z</time>
      </trkpt>
      <trkpt lat="43.53623" lon="6.39301">
        <ele>325.2</ele>
        <time>2025-01-29T14:28:10.000Z</time>
      </trkpt>
      <trkpt lat="43.53613" lon="6.39305">
        <ele>325.2</ele>
        <time>2025-01-29T14:28:19.000Z</time>
      </trkpt>
      <trkpt lat="43.53604" lon="6.3931">
        <ele>324.9</ele>
        <time>2025-01-29T14:28:27.000Z</time>
      </trkpt>
      <trkpt lat="43.53595" lon="6.39314">
        <ele>324.4</ele>
        <time>2025-01-29T14:28:34.000Z</time>
      </trkpt>
      <trkpt lat="43.53586" lon="6.39319">
        <ele>324.2</ele>
        <time>2025-01-29T14:28:42.000Z</time>
      </trkpt>
      <trkpt lat="43.53578" lon="6.39324">
        <ele>324.1</ele>
        <time>2025-01-29T14:28:51.000Z</time>
      </trkpt>
      <trkpt lat="43.53568" lon="6.3933">
        <ele>324</ele>
        <time>2025-01-29T14:29:06.000Z</time>
      </trkpt>
      <trkpt lat="43.5356" lon="6.39334">
        <ele>324.5</ele>
        <time>2025-01-29T14:29:11.000Z</time>
      </trkpt>
      <trkpt lat="43.5355" lon="6.39339">
        <ele>324.5</ele>
        <time>2025-01-29T14:29:17.000Z</time>
      </trkpt>
      <trkpt lat="43.53543" lon="6.39346">
        <ele>324.7</ele>
        <time>2025-01-29T14:29:27.000Z</time>
      </trkpt>
      <trkpt lat="43.53536" lon="6.39356">
        <ele>324.9</ele>
        <time>2025-01-29T14:29:36.000Z</time>
      </trkpt>
      <trkpt lat="43.5353" lon="6.39366">
        <ele>325.2</ele>
        <time>2025-01-29T14:29:45.000Z</time>
      </trkpt>
      <trkpt lat="43.53526" lon="6.39377">
        <ele>325.5</ele>
        <time>2025-01-29T14:29:54.000Z</time>
      </trkpt>
      <trkpt lat="43.53522" lon="6.3939">
        <ele>325.7</ele>
        <time>2025-01-29T14:30:04.000Z</time>
      </trkpt>
      <trkpt lat="43.53521" lon="6.39402">
        <ele>326.2</ele>
        <time>2025-01-29T14:30:20.000Z</time>
      </trkpt>
      <trkpt lat="43.53517" lon="6.39415">
        <ele>326.6</ele>
        <time>2025-01-29T14:30:32.000Z</time>
      </trkpt>
      <trkpt lat="43.5351" lon="6.39408">
        <ele>328.3</ele>
        <time>2025-01-29T14:32:01.000Z</time>
      </trkpt>
      <trkpt lat="43.53501" lon="6.39401">
        <ele>328.8</ele>
        <time>2025-01-29T14:32:10.000Z</time>
      </trkpt>
      <trkpt lat="43.53495" lon="6.39392">
        <ele>329.7</ele>
        <time>2025-01-29T14:32:20.000Z</time>
      </trkpt>
      <trkpt lat="43.53487" lon="6.39384">
        <ele>330.7</ele>
        <time>2025-01-29T14:32:31.000Z</time>
      </trkpt>
      <trkpt lat="43.53478" lon="6.39382">
        <ele>332.2</ele>
        <time>2025-01-29T14:32:43.000Z</time>
      </trkpt>
      <trkpt lat="43.53472" lon="6.39373">
        <ele>335.3</ele>
        <time>2025-01-29T14:33:09.000Z</time>
      </trkpt>
      <trkpt lat="43.53474" lon="6.3936">
        <ele>336.7</ele>
        <time>2025-01-29T14:33:28.000Z</time>
      </trkpt>
      <trkpt lat="43.53476" lon="6.39347">
        <ele>337.5</ele>
        <time>2025-01-29T14:33:45.000Z</time>
      </trkpt>
      <trkpt lat="43.53479" lon="6.39333">
        <ele>337.8</ele>
        <time>2025-01-29T14:33:52.000Z</time>
      </trkpt>
      <trkpt lat="43.53481" lon="6.3932">
        <ele>338.1</ele>
        <time>2025-01-29T14:33:59.000Z</time>
      </trkpt>
      <trkpt lat="43.53484" lon="6.39308">
        <ele>338.3</ele>
        <time>2025-01-29T14:34:07.000Z</time>
      </trkpt>
      <trkpt lat="43.53487" lon="6.39296">
        <ele>338.5</ele>
        <time>2025-01-29T14:34:15.000Z</time>
      </trkpt>
      <trkpt lat="43.53491" lon="6.39284">
        <ele>338.6</ele>
        <time>2025-01-29T14:34:22.000Z</time>
      </trkpt>
      <trkpt lat="43.53496" lon="6.39272">
        <ele>338.8</ele>
        <time>2025-01-29T14:34:30.000Z</time>
      </trkpt>
      <trkpt lat="43.535" lon="6.39261">
        <ele>338.9</ele>
        <time>2025-01-29T14:34:38.000Z</time>
      </trkpt>
      <trkpt lat="43.53504" lon="6.3925">
        <ele>339</ele>
        <time>2025-01-29T14:34:46.000Z</time>
      </trkpt>
      <trkpt lat="43.53509" lon="6.39238">
        <ele>339.1</ele>
        <time>2025-01-29T14:34:55.000Z</time>
      </trkpt>
      <trkpt lat="43.53514" lon="6.39227">
        <ele>339</ele>
        <time>2025-01-29T14:35:06.000Z</time>
      </trkpt>
      <trkpt lat="43.53514" lon="6.39214">
        <ele>339</ele>
        <time>2025-01-29T14:35:17.000Z</time>
      </trkpt>
      <trkpt lat="43.5352" lon="6.39203">
        <ele>339</ele>
        <time>2025-01-29T14:35:27.000Z</time>
      </trkpt>
      <trkpt lat="43.53525" lon="6.39193">
        <ele>339.2</ele>
        <time>2025-01-29T14:35:36.000Z</time>
      </trkpt>
      <trkpt lat="43.53531" lon="6.39182">
        <ele>339.6</ele>
        <time>2025-01-29T14:35:45.000Z</time>
      </trkpt>
      <trkpt lat="43.53537" lon="6.39172">
        <ele>339.6</ele>
        <time>2025-01-29T14:35:53.000Z</time>
      </trkpt>
      <trkpt lat="43.53543" lon="6.39163">
        <ele>339.5</ele>
        <time>2025-01-29T14:36:01.000Z</time>
      </trkpt>
      <trkpt lat="43.53548" lon="6.39153">
        <ele>339.4</ele>
        <time>2025-01-29T14:36:09.000Z</time>
      </trkpt>
      <trkpt lat="43.53556" lon="6.39145">
        <ele>339.3</ele>
        <time>2025-01-29T14:36:17.000Z</time>
      </trkpt>
      <trkpt lat="43.53563" lon="6.39136">
        <ele>339.2</ele>
        <time>2025-01-29T14:36:26.000Z</time>
      </trkpt>
      <trkpt lat="43.53568" lon="6.39126">
        <ele>339.2</ele>
        <time>2025-01-29T14:36:34.000Z</time>
      </trkpt>
      <trkpt lat="43.53573" lon="6.39115">
        <ele>339.2</ele>
        <time>2025-01-29T14:36:42.000Z</time>
      </trkpt>
      <trkpt lat="43.53578" lon="6.39103">
        <ele>339.3</ele>
        <time>2025-01-29T14:36:50.000Z</time>
      </trkpt>
      <trkpt lat="43.53583" lon="6.39092">
        <ele>339.3</ele>
        <time>2025-01-29T14:36:58.000Z</time>
      </trkpt>
      <trkpt lat="43.53588" lon="6.3908">
        <ele>339.3</ele>
        <time>2025-01-29T14:37:07.000Z</time>
      </trkpt>
      <trkpt lat="43.53594" lon="6.39071">
        <ele>339.2</ele>
        <time>2025-01-29T14:37:16.000Z</time>
      </trkpt>
      <trkpt lat="43.53601" lon="6.39061">
        <ele>339.5</ele>
        <time>2025-01-29T14:37:28.000Z</time>
      </trkpt>
      <trkpt lat="43.53607" lon="6.39052">
        <ele>339.7</ele>
        <time>2025-01-29T14:37:40.000Z</time>
      </trkpt>
      <trkpt lat="43.53613" lon="6.39042">
        <ele>339.8</ele>
        <time>2025-01-29T14:37:49.000Z</time>
      </trkpt>
      <trkpt lat="43.53619" lon="6.39033">
        <ele>340</ele>
        <time>2025-01-29T14:37:58.000Z</time>
      </trkpt>
      <trkpt lat="43.53625" lon="6.39022">
        <ele>340.2</ele>
        <time>2025-01-29T14:38:07.000Z</time>
      </trkpt>
      <trkpt lat="43.53631" lon="6.39012">
        <ele>340.4</ele>
        <time>2025-01-29T14:38:15.000Z</time>
      </trkpt>
      <trkpt lat="43.53638" lon="6.39002">
        <ele>340.3</ele>
        <time>2025-01-29T14:38:25.000Z</time>
      </trkpt>
      <trkpt lat="43.53643" lon="6.38992">
        <ele>340.7</ele>
        <time>2025-01-29T14:38:47.000Z</time>
      </trkpt>
      <trkpt lat="43.53649" lon="6.38981">
        <ele>340.9</ele>
        <time>2025-01-29T14:38:56.000Z</time>
      </trkpt>
      <trkpt lat="43.53653" lon="6.3897">
        <ele>341.2</ele>
        <time>2025-01-29T14:39:05.000Z</time>
      </trkpt>
      <trkpt lat="43.53663" lon="6.38968">
        <ele>341.8</ele>
        <time>2025-01-29T14:39:23.000Z</time>
      </trkpt>
      <trkpt lat="43.53671" lon="6.38962">
        <ele>342</ele>
        <time>2025-01-29T14:39:33.000Z</time>
      </trkpt>
      <trkpt lat="43.53673" lon="6.3895">
        <ele>342.1</ele>
        <time>2025-01-29T14:39:42.000Z</time>
      </trkpt>
      <trkpt lat="43.53682" lon="6.38944">
        <ele>342.4</ele>
        <time>2025-01-29T14:39:50.000Z</time>
      </trkpt>
      <trkpt lat="43.53691" lon="6.38937">
        <ele>342.8</ele>
        <time>2025-01-29T14:39:59.000Z</time>
      </trkpt>
      <trkpt lat="43.53698" lon="6.38927">
        <ele>343</ele>
        <time>2025-01-29T14:40:09.000Z</time>
      </trkpt>
      <trkpt lat="43.53704" lon="6.38917">
        <ele>343.1</ele>
        <time>2025-01-29T14:40:17.000Z</time>
      </trkpt>
      <trkpt lat="43.53713" lon="6.38915">
        <ele>343.1</ele>
        <time>2025-01-29T14:40:29.000Z</time>
      </trkpt>
      <trkpt lat="43.5372" lon="6.38923">
        <ele>343.1</ele>
        <time>2025-01-29T14:40:42.000Z</time>
      </trkpt>
      <trkpt lat="43.53727" lon="6.38932">
        <ele>343.2</ele>
        <time>2025-01-29T14:40:51.000Z</time>
      </trkpt>
      <trkpt lat="43.53733" lon="6.38943">
        <ele>343.3</ele>
        <time>2025-01-29T14:41:01.000Z</time>
      </trkpt>
      <trkpt lat="43.5374" lon="6.38953">
        <ele>343.1</ele>
        <time>2025-01-29T14:41:11.000Z</time>
      </trkpt>
      <trkpt lat="43.53745" lon="6.38965">
        <ele>342.7</ele>
        <time>2025-01-29T14:41:20.000Z</time>
      </trkpt>
      <trkpt lat="43.5375" lon="6.38976">
        <ele>342.3</ele>
        <time>2025-01-29T14:41:31.000Z</time>
      </trkpt>
      <trkpt lat="43.53757" lon="6.38985">
        <ele>340.5</ele>
        <time>2025-01-29T14:42:06.000Z</time>
      </trkpt>
      <trkpt lat="43.53763" lon="6.38995">
        <ele>339.8</ele>
        <time>2025-01-29T14:42:17.000Z</time>
      </trkpt>
      <trkpt lat="43.53768" lon="6.39005">
        <ele>339.4</ele>
        <time>2025-01-29T14:42:26.000Z</time>
      </trkpt>
      <trkpt lat="43.53776" lon="6.39012">
        <ele>338.6</ele>
        <time>2025-01-29T14:42:39.000Z</time>
      </trkpt>
      <trkpt lat="43.53785" lon="6.39007">
        <ele>338</ele>
        <time>2025-01-29T14:42:47.000Z</time>
      </trkpt>
      <trkpt lat="43.53795" lon="6.39005">
        <ele>337.1</ele>
        <time>2025-01-29T14:43:00.000Z</time>
      </trkpt>
      <trkpt lat="43.53803" lon="6.39002">
        <ele>336.1</ele>
        <time>2025-01-29T14:45:57.000Z</time>
      </trkpt>
      <trkpt lat="43.5381" lon="6.38993">
        <ele>335.6</ele>
        <time>2025-01-29T14:46:09.000Z</time>
      </trkpt>
      <trkpt lat="43.53817" lon="6.38986">
        <ele>333.9</ele>
        <time>2025-01-29T14:46:45.000Z</time>
      </trkpt>
      <trkpt lat="43.53826" lon="6.38983">
        <ele>333.8</ele>
        <time>2025-01-29T14:47:13.000Z</time>
      </trkpt>
      <trkpt lat="43.53832" lon="6.38972">
        <ele>335</ele>
        <time>2025-01-29T14:49:07.000Z</time>
      </trkpt>
      <trkpt lat="43.53839" lon="6.38965">
        <ele>335.5</ele>
        <time>2025-01-29T14:49:21.000Z</time>
      </trkpt>
      <trkpt lat="43.53849" lon="6.3896">
        <ele>335.7</ele>
        <time>2025-01-29T14:49:32.000Z</time>
      </trkpt>
      <trkpt lat="43.53856" lon="6.38952">
        <ele>336.4</ele>
        <time>2025-01-29T14:49:50.000Z</time>
      </trkpt>
      <trkpt lat="43.53854" lon="6.3894">
        <ele>337.3</ele>
        <time>2025-01-29T14:50:08.000Z</time>
      </trkpt>
      <trkpt lat="43.53852" lon="6.38927">
        <ele>338.9</ele>
        <time>2025-01-29T14:50:22.000Z</time>
      </trkpt>
      <trkpt lat="43.5385" lon="6.38914">
        <ele>339.8</ele>
        <time>2025-01-29T14:50:32.000Z</time>
      </trkpt>
      <trkpt lat="43.53849" lon="6.38901">
        <ele>340.5</ele>
        <time>2025-01-29T14:50:43.000Z</time>
      </trkpt>
      <trkpt lat="43.53847" lon="6.38889">
        <ele>341.6</ele>
        <time>2025-01-29T14:51:02.000Z</time>
      </trkpt>
      <trkpt lat="43.53844" lon="6.38877">
        <ele>342.4</ele>
        <time>2025-01-29T14:51:15.000Z</time>
      </trkpt>
      <trkpt lat="43.53841" lon="6.38863">
        <ele>342.7</ele>
        <time>2025-01-29T14:51:25.000Z</time>
      </trkpt>
      <trkpt lat="43.53841" lon="6.3885">
        <ele>343</ele>
        <time>2025-01-29T14:51:36.000Z</time>
      </trkpt>
      <trkpt lat="43.53839" lon="6.38837">
        <ele>343.4</ele>
        <time>2025-01-29T14:51:50.000Z</time>
      </trkpt>
      <trkpt lat="43.53839" lon="6.38825">
        <ele>343.9</ele>
        <time>2025-01-29T14:52:10.000Z</time>
      </trkpt>
      <trkpt lat="43.53831" lon="6.3882">
        <ele>344.2</ele>
        <time>2025-01-29T14:52:46.000Z</time>
      </trkpt>
      <trkpt lat="43.53836" lon="6.38809">
        <ele>344.3</ele>
        <time>2025-01-29T14:53:19.000Z</time>
      </trkpt>
      <trkpt lat="43.5384" lon="6.38798">
        <ele>344.2</ele>
        <time>2025-01-29T14:53:28.000Z</time>
      </trkpt>
      <trkpt lat="43.53843" lon="6.38785">
        <ele>344.3</ele>
        <time>2025-01-29T14:53:39.000Z</time>
      </trkpt>
      <trkpt lat="43.53849" lon="6.38776">
        <ele>344.2</ele>
        <time>2025-01-29T14:53:48.000Z</time>
      </trkpt>
      <trkpt lat="43.53854" lon="6.38764">
        <ele>344.2</ele>
        <time>2025-01-29T14:53:57.000Z</time>
      </trkpt>
      <trkpt lat="43.53857" lon="6.38752">
        <ele>344.4</ele>
        <time>2025-01-29T14:54:05.000Z</time>
      </trkpt>
      <trkpt lat="43.53857" lon="6.38739">
        <ele>344.5</ele>
        <time>2025-01-29T14:54:14.000Z</time>
      </trkpt>
      <trkpt lat="43.53857" lon="6.38726">
        <ele>344.6</ele>
        <time>2025-01-29T14:54:22.000Z</time>
      </trkpt>
      <trkpt lat="43.53856" lon="6.38712">
        <ele>344.8</ele>
        <time>2025-01-29T14:54:32.000Z</time>
      </trkpt>
      <trkpt lat="43.53858" lon="6.387">
        <ele>344.8</ele>
        <time>2025-01-29T14:54:39.000Z</time>
      </trkpt>
      <trkpt lat="43.53858" lon="6.38687">
        <ele>344.9</ele>
        <time>2025-01-29T14:54:49.000Z</time>
      </trkpt>
      <trkpt lat="43.53858" lon="6.38675">
        <ele>345.2</ele>
        <time>2025-01-29T14:55:00.000Z</time>
      </trkpt>
      <trkpt lat="43.53858" lon="6.38661">
        <ele>345.3</ele>
        <time>2025-01-29T14:55:10.000Z</time>
      </trkpt>
      <trkpt lat="43.53856" lon="6.38648">
        <ele>345.3</ele>
        <time>2025-01-29T14:55:22.000Z</time>
      </trkpt>
      <trkpt lat="43.53852" lon="6.38636">
        <ele>345.3</ele>
        <time>2025-01-29T14:55:34.000Z</time>
      </trkpt>
      <trkpt lat="43.53849" lon="6.38624">
        <ele>345.3</ele>
        <time>2025-01-29T14:55:43.000Z</time>
      </trkpt>
      <trkpt lat="43.53846" lon="6.38611">
        <ele>345.6</ele>
        <time>2025-01-29T14:55:52.000Z</time>
      </trkpt>
      <trkpt lat="43.53844" lon="6.38599">
        <ele>345.8</ele>
        <time>2025-01-29T14:56:03.000Z</time>
      </trkpt>
      <trkpt lat="43.53846" lon="6.38587">
        <ele>346</ele>
        <time>2025-01-29T14:56:18.000Z</time>
      </trkpt>
      <trkpt lat="43.53848" lon="6.38574">
        <ele>346</ele>
        <time>2025-01-29T14:56:45.000Z</time>
      </trkpt>
      <trkpt lat="43.53846" lon="6.38561">
        <ele>346</ele>
        <time>2025-01-29T14:56:59.000Z</time>
      </trkpt>
      <trkpt lat="43.53843" lon="6.38549">
        <ele>346.6</ele>
        <time>2025-01-29T14:57:53.000Z</time>
      </trkpt>
      <trkpt lat="43.53842" lon="6.38536">
        <ele>346.8</ele>
        <time>2025-01-29T14:58:03.000Z</time>
      </trkpt>
      <trkpt lat="43.53845" lon="6.38524">
        <ele>346.9</ele>
        <time>2025-01-29T14:58:11.000Z</time>
      </trkpt>
      <trkpt lat="43.53848" lon="6.38512">
        <ele>347.1</ele>
        <time>2025-01-29T14:58:21.000Z</time>
      </trkpt>
      <trkpt lat="43.53852" lon="6.385">
        <ele>347.4</ele>
        <time>2025-01-29T14:58:35.000Z</time>
      </trkpt>
      <trkpt lat="43.53854" lon="6.38488">
        <ele>347.7</ele>
        <time>2025-01-29T14:58:44.000Z</time>
      </trkpt>
      <trkpt lat="43.53858" lon="6.38476">
        <ele>347.9</ele>
        <time>2025-01-29T14:58:59.000Z</time>
      </trkpt>
      <trkpt lat="43.53862" lon="6.38464">
        <ele>348</ele>
        <time>2025-01-29T14:59:08.000Z</time>
      </trkpt>
      <trkpt lat="43.53866" lon="6.38452">
        <ele>348</ele>
        <time>2025-01-29T14:59:17.000Z</time>
      </trkpt>
      <trkpt lat="43.5387" lon="6.3844">
        <ele>348.1</ele>
        <time>2025-01-29T14:59:25.000Z</time>
      </trkpt>
      <trkpt lat="43.53874" lon="6.38428">
        <ele>348.2</ele>
        <time>2025-01-29T14:59:34.000Z</time>
      </trkpt>
      <trkpt lat="43.53878" lon="6.38417">
        <ele>348.4</ele>
        <time>2025-01-29T14:59:42.000Z</time>
      </trkpt>
      <trkpt lat="43.53882" lon="6.38405">
        <ele>348.9</ele>
        <time>2025-01-29T15:00:06.000Z</time>
      </trkpt>
      <trkpt lat="43.53886" lon="6.38393">
        <ele>349</ele>
        <time>2025-01-29T15:00:16.000Z</time>
      </trkpt>
      <trkpt lat="43.5389" lon="6.38381">
        <ele>349</ele>
        <time>2025-01-29T15:00:25.000Z</time>
      </trkpt>
      <trkpt lat="43.53894" lon="6.38368">
        <ele>349.1</ele>
        <time>2025-01-29T15:00:35.000Z</time>
      </trkpt>
      <trkpt lat="43.53901" lon="6.38359">
        <ele>349.2</ele>
        <time>2025-01-29T15:00:44.000Z</time>
      </trkpt>
      <trkpt lat="43.53908" lon="6.3835">
        <ele>349</ele>
        <time>2025-01-29T15:00:53.000Z</time>
      </trkpt>
      <trkpt lat="43.53915" lon="6.3834">
        <ele>348.9</ele>
        <time>2025-01-29T15:01:03.000Z</time>
      </trkpt>
      <trkpt lat="43.53923" lon="6.38333">
        <ele>349</ele>
        <time>2025-01-29T15:01:13.000Z</time>
      </trkpt>
      <trkpt lat="43.53932" lon="6.3833">
        <ele>349.4</ele>
        <time>2025-01-29T15:01:21.000Z</time>
      </trkpt>
      <trkpt lat="43.53942" lon="6.38327">
        <ele>349.8</ele>
        <time>2025-01-29T15:01:30.000Z</time>
      </trkpt>
      <trkpt lat="43.53952" lon="6.38325">
        <ele>350.2</ele>
        <time>2025-01-29T15:01:43.000Z</time>
      </trkpt>
      <trkpt lat="43.53961" lon="6.38325">
        <ele>350.5</ele>
        <time>2025-01-29T15:01:52.000Z</time>
      </trkpt>
      <trkpt lat="43.53971" lon="6.38323">
        <ele>350.8</ele>
        <time>2025-01-29T15:02:02.000Z</time>
      </trkpt>
      <trkpt lat="43.5398" lon="6.38318">
        <ele>351.1</ele>
        <time>2025-01-29T15:02:11.000Z</time>
      </trkpt>
      <trkpt lat="43.5399" lon="6.38319">
        <ele>351.7</ele>
        <time>2025-01-29T15:02:20.000Z</time>
      </trkpt>
      <trkpt lat="43.53999" lon="6.38319">
        <ele>351.9</ele>
        <time>2025-01-29T15:02:28.000Z</time>
      </trkpt>
      <trkpt lat="43.54006" lon="6.38311">
        <ele>352.1</ele>
        <time>2025-01-29T15:02:38.000Z</time>
      </trkpt>
      <trkpt lat="43.54001" lon="6.38299">
        <ele>352.3</ele>
        <time>2025-01-29T15:02:49.000Z</time>
      </trkpt>
      <trkpt lat="43.53992" lon="6.38294">
        <ele>352.4</ele>
        <time>2025-01-29T15:03:00.000Z</time>
      </trkpt>
      <trkpt lat="43.53984" lon="6.38287">
        <ele>352.5</ele>
        <time>2025-01-29T15:03:10.000Z</time>
      </trkpt>
      <trkpt lat="43.53977" lon="6.38277">
        <ele>352.6</ele>
        <time>2025-01-29T15:03:19.000Z</time>
      </trkpt>
      <trkpt lat="43.53972" lon="6.38266">
        <ele>352.9</ele>
        <time>2025-01-29T15:03:31.000Z</time>
      </trkpt>
      <trkpt lat="43.53973" lon="6.38254">
        <ele>353</ele>
        <time>2025-01-29T15:03:43.000Z</time>
      </trkpt>
      <trkpt lat="43.53977" lon="6.38243">
        <ele>353.3</ele>
        <time>2025-01-29T15:03:54.000Z</time>
      </trkpt>
      <trkpt lat="43.53982" lon="6.38232">
        <ele>353.7</ele>
        <time>2025-01-29T15:04:04.000Z</time>
      </trkpt>
      <trkpt lat="43.53987" lon="6.3822">
        <ele>354</ele>
        <time>2025-01-29T15:04:12.000Z</time>
      </trkpt>
      <trkpt lat="43.5399" lon="6.38208">
        <ele>354.7</ele>
        <time>2025-01-29T15:04:40.000Z</time>
      </trkpt>
      <trkpt lat="43.53995" lon="6.38198">
        <ele>354.9</ele>
        <time>2025-01-29T15:05:11.000Z</time>
      </trkpt>
      <trkpt lat="43.54001" lon="6.38188">
        <ele>354.9</ele>
        <time>2025-01-29T15:05:20.000Z</time>
      </trkpt>
      <trkpt lat="43.54007" lon="6.38179">
        <ele>355.5</ele>
        <time>2025-01-29T15:05:30.000Z</time>
      </trkpt>
      <trkpt lat="43.54014" lon="6.38172">
        <ele>355.9</ele>
        <time>2025-01-29T15:05:40.000Z</time>
      </trkpt>
      <trkpt lat="43.54021" lon="6.38162">
        <ele>355.9</ele>
        <time>2025-01-29T15:05:50.000Z</time>
      </trkpt>
      <trkpt lat="43.54027" lon="6.38152">
        <ele>355.9</ele>
        <time>2025-01-29T15:05:59.000Z</time>
      </trkpt>
      <trkpt lat="43.54033" lon="6.38142">
        <ele>355.8</ele>
        <time>2025-01-29T15:06:10.000Z</time>
      </trkpt>
      <trkpt lat="43.54038" lon="6.38131">
        <ele>355.8</ele>
        <time>2025-01-29T15:06:23.000Z</time>
      </trkpt>
      <trkpt lat="43.54046" lon="6.38123">
        <ele>355.9</ele>
        <time>2025-01-29T15:06:33.000Z</time>
      </trkpt>
      <trkpt lat="43.54055" lon="6.38118">
        <ele>355.8</ele>
        <time>2025-01-29T15:06:42.000Z</time>
      </trkpt>
      <trkpt lat="43.54064" lon="6.38114">
        <ele>356.1</ele>
        <time>2025-01-29T15:06:52.000Z</time>
      </trkpt>
      <trkpt lat="43.54073" lon="6.38107">
        <ele>356.4</ele>
        <time>2025-01-29T15:07:03.000Z</time>
      </trkpt>
      <trkpt lat="43.54082" lon="6.38103">
        <ele>356.4</ele>
        <time>2025-01-29T15:07:15.000Z</time>
      </trkpt>
      <trkpt lat="43.54091" lon="6.38099">
        <ele>356.5</ele>
        <time>2025-01-29T15:07:24.000Z</time>
      </trkpt>
      <trkpt lat="43.541" lon="6.38101">
        <ele>356.5</ele>
        <time>2025-01-29T15:07:32.000Z</time>
      </trkpt>
      <trkpt lat="43.54109" lon="6.38104">
        <ele>356.5</ele>
        <time>2025-01-29T15:07:41.000Z</time>
      </trkpt>
      <trkpt lat="43.54117" lon="6.3811">
        <ele>356.6</ele>
        <time>2025-01-29T15:07:50.000Z</time>
      </trkpt>
      <trkpt lat="43.54126" lon="6.38114">
        <ele>356.8</ele>
        <time>2025-01-29T15:07:58.000Z</time>
      </trkpt>
      <trkpt lat="43.54136" lon="6.3811">
        <ele>357.1</ele>
        <time>2025-01-29T15:08:09.000Z</time>
      </trkpt>
      <trkpt lat="43.54144" lon="6.38105">
        <ele>357.3</ele>
        <time>2025-01-29T15:08:24.000Z</time>
      </trkpt>
      <trkpt lat="43.54152" lon="6.38097">
        <ele>357.3</ele>
        <time>2025-01-29T15:08:36.000Z</time>
      </trkpt>
      <trkpt lat="43.54161" lon="6.38089">
        <ele>357.4</ele>
        <time>2025-01-29T15:08:47.000Z</time>
      </trkpt>
      <trkpt lat="43.5417" lon="6.38082">
        <ele>357.4</ele>
        <time>2025-01-29T15:08:56.000Z</time>
      </trkpt>
      <trkpt lat="43.54177" lon="6.38076">
        <ele>357.4</ele>
        <time>2025-01-29T15:09:05.000Z</time>
      </trkpt>
      <trkpt lat="43.54183" lon="6.38065">
        <ele>357.6</ele>
        <time>2025-01-29T15:09:16.000Z</time>
      </trkpt>
      <trkpt lat="43.54183" lon="6.38053">
        <ele>357.6</ele>
        <time>2025-01-29T15:09:28.000Z</time>
      </trkpt>
      <trkpt lat="43.54178" lon="6.38041">
        <ele>357.5</ele>
        <time>2025-01-29T15:09:39.000Z</time>
      </trkpt>
      <trkpt lat="43.54174" lon="6.3803">
        <ele>357.2</ele>
        <time>2025-01-29T15:09:49.000Z</time>
      </trkpt>
      <trkpt lat="43.54166" lon="6.3802">
        <ele>357</ele>
        <time>2025-01-29T15:09:59.000Z</time>
      </trkpt>
      <trkpt lat="43.54159" lon="6.38014">
        <ele>356.9</ele>
        <time>2025-01-29T15:10:09.000Z</time>
      </trkpt>
      <trkpt lat="43.54153" lon="6.38003">
        <ele>356.9</ele>
        <time>2025-01-29T15:10:23.000Z</time>
      </trkpt>
      <trkpt lat="43.5415" lon="6.37991">
        <ele>356.9</ele>
        <time>2025-01-29T15:10:32.000Z</time>
      </trkpt>
      <trkpt lat="43.54149" lon="6.37977">
        <ele>356.8</ele>
        <time>2025-01-29T15:10:42.000Z</time>
      </trkpt>
      <trkpt lat="43.54152" lon="6.37965">
        <ele>356.7</ele>
        <time>2025-01-29T15:10:52.000Z</time>
      </trkpt>
      <trkpt lat="43.54154" lon="6.37952">
        <ele>356.8</ele>
        <time>2025-01-29T15:11:01.000Z</time>
      </trkpt>
      <trkpt lat="43.54158" lon="6.3794">
        <ele>356.8</ele>
        <time>2025-01-29T15:11:09.000Z</time>
      </trkpt>
      <trkpt lat="43.54162" lon="6.37927">
        <ele>356.7</ele>
        <time>2025-01-29T15:11:20.000Z</time>
      </trkpt>
      <trkpt lat="43.54165" lon="6.37915">
        <ele>356.9</ele>
        <time>2025-01-29T15:11:30.000Z</time>
      </trkpt>
      <trkpt lat="43.5417" lon="6.37905">
        <ele>357</ele>
        <time>2025-01-29T15:11:39.000Z</time>
      </trkpt>
      <trkpt lat="43.54174" lon="6.37894">
        <ele>357.1</ele>
        <time>2025-01-29T15:11:51.000Z</time>
      </trkpt>
      <trkpt lat="43.54179" lon="6.37882">
        <ele>357.1</ele>
        <time>2025-01-29T15:12:10.000Z</time>
      </trkpt>
      <trkpt lat="43.54183" lon="6.3787">
        <ele>357</ele>
        <time>2025-01-29T15:12:32.000Z</time>
      </trkpt>
      <trkpt lat="43.54191" lon="6.37862">
        <ele>357</ele>
        <time>2025-01-29T15:12:47.000Z</time>
      </trkpt>
      <trkpt lat="43.54198" lon="6.37852">
        <ele>357</ele>
        <time>2025-01-29T15:12:54.000Z</time>
      </trkpt>
      <trkpt lat="43.54203" lon="6.3784">
        <ele>357</ele>
        <time>2025-01-29T15:13:02.000Z</time>
      </trkpt>
      <trkpt lat="43.54204" lon="6.37828">
        <ele>357</ele>
        <time>2025-01-29T15:13:12.000Z</time>
      </trkpt>
      <trkpt lat="43.54206" lon="6.37814">
        <ele>357</ele>
        <time>2025-01-29T15:13:20.000Z</time>
      </trkpt>
      <trkpt lat="43.54209" lon="6.37801">
        <ele>357.3</ele>
        <time>2025-01-29T15:13:30.000Z</time>
      </trkpt>
      <trkpt lat="43.54211" lon="6.37788">
        <ele>357.2</ele>
        <time>2025-01-29T15:13:39.000Z</time>
      </trkpt>
      <trkpt lat="43.54215" lon="6.37776">
        <ele>357.1</ele>
        <time>2025-01-29T15:13:47.000Z</time>
      </trkpt>
      <trkpt lat="43.54218" lon="6.37763">
        <ele>356.9</ele>
        <time>2025-01-29T15:13:58.000Z</time>
      </trkpt>
      <trkpt lat="43.54223" lon="6.37751">
        <ele>356.9</ele>
        <time>2025-01-29T15:14:08.000Z</time>
      </trkpt>
      <trkpt lat="43.54228" lon="6.3774">
        <ele>357</ele>
        <time>2025-01-29T15:14:19.000Z</time>
      </trkpt>
      <trkpt lat="43.54233" lon="6.37729">
        <ele>357.1</ele>
        <time>2025-01-29T15:14:28.000Z</time>
      </trkpt>
      <trkpt lat="43.54239" lon="6.37719">
        <ele>357.2</ele>
        <time>2025-01-29T15:14:38.000Z</time>
      </trkpt>
      <trkpt lat="43.54246" lon="6.3771">
        <ele>357</ele>
        <time>2025-01-29T15:14:49.000Z</time>
      </trkpt>
      <trkpt lat="43.54254" lon="6.37703">
        <ele>356.9</ele>
        <time>2025-01-29T15:14:59.000Z</time>
      </trkpt>
      <trkpt lat="43.54262" lon="6.37697">
        <ele>356.9</ele>
        <time>2025-01-29T15:15:09.000Z</time>
      </trkpt>
      <trkpt lat="43.5427" lon="6.3769">
        <ele>356.9</ele>
        <time>2025-01-29T15:15:17.000Z</time>
      </trkpt>
      <trkpt lat="43.54278" lon="6.37685">
        <ele>356.9</ele>
        <time>2025-01-29T15:15:26.000Z</time>
      </trkpt>
      <trkpt lat="43.54287" lon="6.37681">
        <ele>356.9</ele>
        <time>2025-01-29T15:15:35.000Z</time>
      </trkpt>
      <trkpt lat="43.54297" lon="6.3768">
        <ele>357</ele>
        <time>2025-01-29T15:15:44.000Z</time>
      </trkpt>
      <trkpt lat="43.54306" lon="6.37681">
        <ele>357</ele>
        <time>2025-01-29T15:15:52.000Z</time>
      </trkpt>
      <trkpt lat="43.54316" lon="6.37682">
        <ele>357</ele>
        <time>2025-01-29T15:16:01.000Z</time>
      </trkpt>
      <trkpt lat="43.54325" lon="6.37683">
        <ele>357</ele>
        <time>2025-01-29T15:16:10.000Z</time>
      </trkpt>
      <trkpt lat="43.54334" lon="6.37685">
        <ele>357</ele>
        <time>2025-01-29T15:16:20.000Z</time>
      </trkpt>
      <trkpt lat="43.54343" lon="6.37686">
        <ele>357.1</ele>
        <time>2025-01-29T15:16:29.000Z</time>
      </trkpt>
      <trkpt lat="43.54353" lon="6.37687">
        <ele>357.1</ele>
        <time>2025-01-29T15:16:39.000Z</time>
      </trkpt>
      <trkpt lat="43.54361" lon="6.37682">
        <ele>357.2</ele>
        <time>2025-01-29T15:16:48.000Z</time>
      </trkpt>
      <trkpt lat="43.54366" lon="6.3767">
        <ele>357.6</ele>
        <time>2025-01-29T15:16:58.000Z</time>
      </trkpt>
      <trkpt lat="43.5437" lon="6.37658">
        <ele>357.9</ele>
        <time>2025-01-29T15:17:08.000Z</time>
      </trkpt>
      <trkpt lat="43.54373" lon="6.37647">
        <ele>357.6</ele>
        <time>2025-01-29T15:17:17.000Z</time>
      </trkpt>
      <trkpt lat="43.54376" lon="6.37634">
        <ele>357.3</ele>
        <time>2025-01-29T15:17:26.000Z</time>
      </trkpt>
      <trkpt lat="43.5438" lon="6.37623">
        <ele>357.5</ele>
        <time>2025-01-29T15:17:36.000Z</time>
      </trkpt>
      <trkpt lat="43.54384" lon="6.37611">
        <ele>357.6</ele>
        <time>2025-01-29T15:17:44.000Z</time>
      </trkpt>
      <trkpt lat="43.54386" lon="6.37598">
        <ele>357.8</ele>
        <time>2025-01-29T15:17:55.000Z</time>
      </trkpt>
      <trkpt lat="43.54388" lon="6.37584">
        <ele>358.1</ele>
        <time>2025-01-29T15:18:07.000Z</time>
      </trkpt>
      <trkpt lat="43.54395" lon="6.37575">
        <ele>358.2</ele>
        <time>2025-01-29T15:18:16.000Z</time>
      </trkpt>
      <trkpt lat="43.544" lon="6.37565">
        <ele>358.1</ele>
        <time>2025-01-29T15:18:26.000Z</time>
      </trkpt>
      <trkpt lat="43.54396" lon="6.37553">
        <ele>358.1</ele>
        <time>2025-01-29T15:18:44.000Z</time>
      </trkpt>
      <trkpt lat="43.54395" lon="6.3754">
        <ele>358</ele>
        <time>2025-01-29T15:18:58.000Z</time>
      </trkpt>
      <trkpt lat="43.54396" lon="6.37527">
        <ele>358</ele>
        <time>2025-01-29T15:19:07.000Z</time>
      </trkpt>
      <trkpt lat="43.544" lon="6.37515">
        <ele>358.1</ele>
        <time>2025-01-29T15:19:16.000Z</time>
      </trkpt>
      <trkpt lat="43.54407" lon="6.37506">
        <ele>358.2</ele>
        <time>2025-01-29T15:19:26.000Z</time>
      </trkpt>
      <trkpt lat="43.54415" lon="6.375">
        <ele>358.2</ele>
        <time>2025-01-29T15:19:36.000Z</time>
      </trkpt>
      <trkpt lat="43.54423" lon="6.37491">
        <ele>358.2</ele>
        <time>2025-01-29T15:19:45.000Z</time>
      </trkpt>
      <trkpt lat="43.5443" lon="6.37483">
        <ele>358.6</ele>
        <time>2025-01-29T15:19:55.000Z</time>
      </trkpt>
      <trkpt lat="43.54437" lon="6.37474">
        <ele>358.8</ele>
        <time>2025-01-29T15:20:05.000Z</time>
      </trkpt>
      <trkpt lat="43.54445" lon="6.37467">
        <ele>358.9</ele>
        <time>2025-01-29T15:20:15.000Z</time>
      </trkpt>
      <trkpt lat="43.54453" lon="6.37463">
        <ele>359.1</ele>
        <time>2025-01-29T15:20:25.000Z</time>
      </trkpt>
      <trkpt lat="43.54462" lon="6.37456">
        <ele>359.3</ele>
        <time>2025-01-29T15:20:45.000Z</time>
      </trkpt>
      <trkpt lat="43.5447" lon="6.37461">
        <ele>359.3</ele>
        <time>2025-01-29T15:21:23.000Z</time>
      </trkpt>
      <trkpt lat="43.54479" lon="6.37466">
        <ele>359.3</ele>
        <time>2025-01-29T15:22:12.000Z</time>
      </trkpt>
      <trkpt lat="43.54488" lon="6.3747">
        <ele>359.6</ele>
        <time>2025-01-29T15:22:30.000Z</time>
      </trkpt>
      <trkpt lat="43.54497" lon="6.37475">
        <ele>360</ele>
        <time>2025-01-29T15:22:46.000Z</time>
      </trkpt>
      <trkpt lat="43.54506" lon="6.37477">
        <ele>360.5</ele>
        <time>2025-01-29T15:22:59.000Z</time>
      </trkpt>
      <trkpt lat="43.54515" lon="6.37477">
        <ele>360.8</ele>
        <time>2025-01-29T15:23:19.000Z</time>
      </trkpt>
      <trkpt lat="43.54522" lon="6.37468">
        <ele>361</ele>
        <time>2025-01-29T15:23:39.000Z</time>
      </trkpt>
      <trkpt lat="43.54528" lon="6.37459">
        <ele>360.8</ele>
        <time>2025-01-29T15:23:50.000Z</time>
      </trkpt>
      <trkpt lat="43.54534" lon="6.37449">
        <ele>360.8</ele>
        <time>2025-01-29T15:23:58.000Z</time>
      </trkpt>
      <trkpt lat="43.5454" lon="6.37438">
        <ele>361</ele>
        <time>2025-01-29T15:24:08.000Z</time>
      </trkpt>
      <trkpt lat="43.54545" lon="6.37426">
        <ele>361.3</ele>
        <time>2025-01-29T15:24:19.000Z</time>
      </trkpt>
      <trkpt lat="43.54551" lon="6.37416">
        <ele>361.7</ele>
        <time>2025-01-29T15:24:29.000Z</time>
      </trkpt>
      <trkpt lat="43.54555" lon="6.37405">
        <ele>362</ele>
        <time>2025-01-29T15:24:39.000Z</time>
      </trkpt>
      <trkpt lat="43.54555" lon="6.37392">
        <ele>362.6</ele>
        <time>2025-01-29T15:24:50.000Z</time>
      </trkpt>
      <trkpt lat="43.5456" lon="6.3738">
        <ele>363</ele>
        <time>2025-01-29T15:25:00.000Z</time>
      </trkpt>
      <trkpt lat="43.54566" lon="6.37369">
        <ele>362.9</ele>
        <time>2025-01-29T15:25:13.000Z</time>
      </trkpt>
      <trkpt lat="43.54571" lon="6.37359">
        <ele>362.9</ele>
        <time>2025-01-29T15:25:22.000Z</time>
      </trkpt>
      <trkpt lat="43.54577" lon="6.37349">
        <ele>363</ele>
        <time>2025-01-29T15:25:35.000Z</time>
      </trkpt>
      <trkpt lat="43.54586" lon="6.37344">
        <ele>363.1</ele>
        <time>2025-01-29T15:25:44.000Z</time>
      </trkpt>
      <trkpt lat="43.54594" lon="6.37338">
        <ele>363.4</ele>
        <time>2025-01-29T15:26:03.000Z</time>
      </trkpt>
      <trkpt lat="43.54597" lon="6.37325">
        <ele>363.2</ele>
        <time>2025-01-29T15:30:05.000Z</time>
      </trkpt>
      <trkpt lat="43.54602" lon="6.37315">
        <ele>363.2</ele>
        <time>2025-01-29T15:30:14.000Z</time>
      </trkpt>
      <trkpt lat="43.54607" lon="6.37305">
        <ele>363.1</ele>
        <time>2025-01-29T15:30:23.000Z</time>
      </trkpt>
      <trkpt lat="43.54613" lon="6.37295">
        <ele>363</ele>
        <time>2025-01-29T15:30:33.000Z</time>
      </trkpt>
      <trkpt lat="43.5462" lon="6.37285">
        <ele>362.9</ele>
        <time>2025-01-29T15:30:53.000Z</time>
      </trkpt>
      <trkpt lat="43.54626" lon="6.37276">
        <ele>363.1</ele>
        <time>2025-01-29T15:31:40.000Z</time>
      </trkpt>
      <trkpt lat="43.54631" lon="6.37265">
        <ele>363.2</ele>
        <time>2025-01-29T15:31:54.000Z</time>
      </trkpt>
      <trkpt lat="43.54636" lon="6.37255">
        <ele>363.3</ele>
        <time>2025-01-29T15:32:09.000Z</time>
      </trkpt>
      <trkpt lat="43.54641" lon="6.37244">
        <ele>363.4</ele>
        <time>2025-01-29T15:32:27.000Z</time>
      </trkpt>
      <trkpt lat="43.54646" lon="6.37233">
        <ele>363.5</ele>
        <time>2025-01-29T15:32:39.000Z</time>
      </trkpt>
      <trkpt lat="43.54654" lon="6.37227">
        <ele>363.6</ele>
        <time>2025-01-29T15:32:53.000Z</time>
      </trkpt>
      <trkpt lat="43.54664" lon="6.37231">
        <ele>363.7</ele>
        <time>2025-01-29T15:33:02.000Z</time>
      </trkpt>
      <trkpt lat="43.54673" lon="6.37236">
        <ele>364</ele>
        <time>2025-01-29T15:33:11.000Z</time>
      </trkpt>
      <trkpt lat="43.54682" lon="6.37241">
        <ele>364.3</ele>
        <time>2025-01-29T15:33:21.000Z</time>
      </trkpt>
      <trkpt lat="43.54691" lon="6.37246">
        <ele>364.7</ele>
        <time>2025-01-29T15:33:30.000Z</time>
      </trkpt>
      <trkpt lat="43.54699" lon="6.37252">
        <ele>365.2</ele>
        <time>2025-01-29T15:33:39.000Z</time>
      </trkpt>
      <trkpt lat="43.54708" lon="6.37257">
        <ele>365.6</ele>
        <time>2025-01-29T15:33:48.000Z</time>
      </trkpt>
      <trkpt lat="43.54717" lon="6.37262">
        <ele>366.4</ele>
        <time>2025-01-29T15:33:58.000Z</time>
      </trkpt>
      <trkpt lat="43.54726" lon="6.37268">
        <ele>367.1</ele>
        <time>2025-01-29T15:34:07.000Z</time>
      </trkpt>
      <trkpt lat="43.54734" lon="6.37275">
        <ele>367.7</ele>
        <time>2025-01-29T15:34:16.000Z</time>
      </trkpt>
      <trkpt lat="43.54742" lon="6.37281">
        <ele>368.1</ele>
        <time>2025-01-29T15:34:25.000Z</time>
      </trkpt>
      <trkpt lat="43.5475" lon="6.37286">
        <ele>368.8</ele>
        <time>2025-01-29T15:34:34.000Z</time>
      </trkpt>
      <trkpt lat="43.54759" lon="6.37291">
        <ele>369.3</ele>
        <time>2025-01-29T15:34:43.000Z</time>
      </trkpt>
      <trkpt lat="43.54768" lon="6.37295">
        <ele>370.3</ele>
        <time>2025-01-29T15:34:54.000Z</time>
      </trkpt>
      <trkpt lat="43.54776" lon="6.37287">
        <ele>371.5</ele>
        <time>2025-01-29T15:35:06.000Z</time>
      </trkpt>
      <trkpt lat="43.54781" lon="6.37277">
        <ele>372.3</ele>
        <time>2025-01-29T15:35:16.000Z</time>
      </trkpt>
      <trkpt lat="43.54787" lon="6.37267">
        <ele>373.6</ele>
        <time>2025-01-29T15:35:31.000Z</time>
      </trkpt>
      <trkpt lat="43.54792" lon="6.37257">
        <ele>374.3</ele>
        <time>2025-01-29T15:35:47.000Z</time>
      </trkpt>
      <trkpt lat="43.54798" lon="6.37247">
        <ele>374.6</ele>
        <time>2025-01-29T15:35:55.000Z</time>
      </trkpt>
      <trkpt lat="43.54805" lon="6.37237">
        <ele>374.8</ele>
        <time>2025-01-29T15:36:03.000Z</time>
      </trkpt>
      <trkpt lat="43.5481" lon="6.37228">
        <ele>374.9</ele>
        <time>2025-01-29T15:36:22.000Z</time>
      </trkpt>
      <trkpt lat="43.54817" lon="6.37218">
        <ele>374.9</ele>
        <time>2025-01-29T15:36:31.000Z</time>
      </trkpt>
      <trkpt lat="43.54823" lon="6.37209">
        <ele>374.8</ele>
        <time>2025-01-29T15:36:38.000Z</time>
      </trkpt>
      <trkpt lat="43.54831" lon="6.372">
        <ele>374.8</ele>
        <time>2025-01-29T15:36:46.000Z</time>
      </trkpt>
      <trkpt lat="43.54838" lon="6.3719">
        <ele>374.8</ele>
        <time>2025-01-29T15:36:55.000Z</time>
      </trkpt>
      <trkpt lat="43.54845" lon="6.37182">
        <ele>374.8</ele>
        <time>2025-01-29T15:37:02.000Z</time>
      </trkpt>
      <trkpt lat="43.54852" lon="6.37173">
        <ele>374.7</ele>
        <time>2025-01-29T15:37:10.000Z</time>
      </trkpt>
      <trkpt lat="43.54858" lon="6.37163">
        <ele>374.6</ele>
        <time>2025-01-29T15:37:19.000Z</time>
      </trkpt>
      <trkpt lat="43.54865" lon="6.37152">
        <ele>374.6</ele>
        <time>2025-01-29T15:37:27.000Z</time>
      </trkpt>
      <trkpt lat="43.54871" lon="6.37143">
        <ele>374.5</ele>
        <time>2025-01-29T15:37:34.000Z</time>
      </trkpt>
      <trkpt lat="43.54877" lon="6.37133">
        <ele>374.5</ele>
        <time>2025-01-29T15:37:42.000Z</time>
      </trkpt>
      <trkpt lat="43.54883" lon="6.37123">
        <ele>374.5</ele>
        <time>2025-01-29T15:37:50.000Z</time>
      </trkpt>
      <trkpt lat="43.54887" lon="6.37112">
        <ele>374.6</ele>
        <time>2025-01-29T15:37:58.000Z</time>
      </trkpt>
      <trkpt lat="43.5489" lon="6.37099">
        <ele>374.7</ele>
        <time>2025-01-29T15:38:07.000Z</time>
      </trkpt>
      <trkpt lat="43.54893" lon="6.37087">
        <ele>374.8</ele>
        <time>2025-01-29T15:38:14.000Z</time>
      </trkpt>
      <trkpt lat="43.54896" lon="6.37075">
        <ele>374.8</ele>
        <time>2025-01-29T15:38:23.000Z</time>
      </trkpt>
      <trkpt lat="43.54898" lon="6.37063">
        <ele>374.4</ele>
        <time>2025-01-29T15:38:33.000Z</time>
      </trkpt>
      <trkpt lat="43.54901" lon="6.3705">
        <ele>374.1</ele>
        <time>2025-01-29T15:38:42.000Z</time>
      </trkpt>
      <trkpt lat="43.54906" lon="6.37038">
        <ele>373.8</ele>
        <time>2025-01-29T15:38:50.000Z</time>
      </trkpt>
      <trkpt lat="43.54911" lon="6.37027">
        <ele>373.5</ele>
        <time>2025-01-29T15:38:57.000Z</time>
      </trkpt>
      <trkpt lat="43.54916" lon="6.37015">
        <ele>373.4</ele>
        <time>2025-01-29T15:39:03.000Z</time>
      </trkpt>
      <trkpt lat="43.5492" lon="6.37003">
        <ele>373.2</ele>
        <time>2025-01-29T15:39:10.000Z</time>
      </trkpt>
      <trkpt lat="43.54924" lon="6.36991">
        <ele>373.1</ele>
        <time>2025-01-29T15:39:18.000Z</time>
      </trkpt>
      <trkpt lat="43.54928" lon="6.3698">
        <ele>373</ele>
        <time>2025-01-29T15:39:25.000Z</time>
      </trkpt>
      <trkpt lat="43.54934" lon="6.36968">
        <ele>372.8</ele>
        <time>2025-01-29T15:39:33.000Z</time>
      </trkpt>
      <trkpt lat="43.54938" lon="6.36957">
        <ele>372.5</ele>
        <time>2025-01-29T15:39:40.000Z</time>
      </trkpt>
      <trkpt lat="43.54943" lon="6.36945">
        <ele>372.1</ele>
        <time>2025-01-29T15:39:49.000Z</time>
      </trkpt>
      <trkpt lat="43.54947" lon="6.36932">
        <ele>371.8</ele>
        <time>2025-01-29T15:39:57.000Z</time>
      </trkpt>
      <trkpt lat="43.54951" lon="6.3692">
        <ele>371.3</ele>
        <time>2025-01-29T15:40:06.000Z</time>
      </trkpt>
      <trkpt lat="43.54957" lon="6.36908">
        <ele>371</ele>
        <time>2025-01-29T15:40:14.000Z</time>
      </trkpt>
      <trkpt lat="43.54961" lon="6.36896">
        <ele>370.8</ele>
        <time>2025-01-29T15:40:22.000Z</time>
      </trkpt>
      <trkpt lat="43.54966" lon="6.36884">
        <ele>370.7</ele>
        <time>2025-01-29T15:40:30.000Z</time>
      </trkpt>
      <trkpt lat="43.54971" lon="6.36872">
        <ele>370.6</ele>
        <time>2025-01-29T15:40:38.000Z</time>
      </trkpt>
      <trkpt lat="43.54976" lon="6.3686">
        <ele>370.6</ele>
        <time>2025-01-29T15:40:46.000Z</time>
      </trkpt>
      <trkpt lat="43.5498" lon="6.36848">
        <ele>370.7</ele>
        <time>2025-01-29T15:40:54.000Z</time>
      </trkpt>
      <trkpt lat="43.54985" lon="6.36837">
        <ele>370.9</ele>
        <time>2025-01-29T15:41:02.000Z</time>
      </trkpt>
      <trkpt lat="43.54989" lon="6.36826">
        <ele>371</ele>
        <time>2025-01-29T15:41:10.000Z</time>
      </trkpt>
      <trkpt lat="43.54993" lon="6.36814">
        <ele>371</ele>
        <time>2025-01-29T15:41:19.000Z</time>
      </trkpt>
      <trkpt lat="43.54998" lon="6.36803">
        <ele>371.2</ele>
        <time>2025-01-29T15:41:36.000Z</time>
      </trkpt>
      <trkpt lat="43.55003" lon="6.36792">
        <ele>371.2</ele>
        <time>2025-01-29T15:41:47.000Z</time>
      </trkpt>
      <trkpt lat="43.55013" lon="6.36792">
        <ele>371.3</ele>
        <time>2025-01-29T15:42:03.000Z</time>
      </trkpt>
      <trkpt lat="43.55021" lon="6.36796">
        <ele>371.5</ele>
        <time>2025-01-29T15:42:12.000Z</time>
      </trkpt>
      <trkpt lat="43.55031" lon="6.36801">
        <ele>371.7</ele>
        <time>2025-01-29T15:42:23.000Z</time>
      </trkpt>
      <trkpt lat="43.55039" lon="6.36808">
        <ele>372.1</ele>
        <time>2025-01-29T15:42:32.000Z</time>
      </trkpt>
      <trkpt lat="43.55046" lon="6.36817">
        <ele>372.3</ele>
        <time>2025-01-29T15:42:42.000Z</time>
      </trkpt>
      <trkpt lat="43.55052" lon="6.36827">
        <ele>372.8</ele>
        <time>2025-01-29T15:42:52.000Z</time>
      </trkpt>
      <trkpt lat="43.55056" lon="6.36838">
        <ele>373.2</ele>
        <time>2025-01-29T15:43:01.000Z</time>
      </trkpt>
      <trkpt lat="43.55059" lon="6.3685">
        <ele>374</ele>
        <time>2025-01-29T15:43:12.000Z</time>
      </trkpt>
      <trkpt lat="43.55063" lon="6.36863">
        <ele>374.5</ele>
        <time>2025-01-29T15:43:22.000Z</time>
      </trkpt>
      <trkpt lat="43.55067" lon="6.36874">
        <ele>375.3</ele>
        <time>2025-01-29T15:43:31.000Z</time>
      </trkpt>
      <trkpt lat="43.5507" lon="6.36886">
        <ele>376.2</ele>
        <time>2025-01-29T15:43:39.000Z</time>
      </trkpt>
      <trkpt lat="43.55072" lon="6.36899">
        <ele>377.3</ele>
        <time>2025-01-29T15:43:48.000Z</time>
      </trkpt>
      <trkpt lat="43.55074" lon="6.36911">
        <ele>379</ele>
        <time>2025-01-29T15:43:58.000Z</time>
      </trkpt>
      <trkpt lat="43.55075" lon="6.36924">
        <ele>380.2</ele>
        <time>2025-01-29T15:44:08.000Z</time>
      </trkpt>
      <trkpt lat="43.55079" lon="6.36936">
        <ele>381.6</ele>
        <time>2025-01-29T15:44:19.000Z</time>
      </trkpt>
      <trkpt lat="43.55083" lon="6.36948">
        <ele>382.9</ele>
        <time>2025-01-29T15:44:28.000Z</time>
      </trkpt>
      <trkpt lat="43.55088" lon="6.3696">
        <ele>385.2</ele>
        <time>2025-01-29T15:44:40.000Z</time>
      </trkpt>
      <trkpt lat="43.55092" lon="6.36972">
        <ele>387.1</ele>
        <time>2025-01-29T15:44:51.000Z</time>
      </trkpt>
      <trkpt lat="43.55094" lon="6.36985">
        <ele>388.8</ele>
        <time>2025-01-29T15:45:01.000Z</time>
      </trkpt>
      <trkpt lat="43.55096" lon="6.36998">
        <ele>390.8</ele>
        <time>2025-01-29T15:45:13.000Z</time>
      </trkpt>
      <trkpt lat="43.55098" lon="6.3701">
        <ele>392.3</ele>
        <time>2025-01-29T15:45:22.000Z</time>
      </trkpt>
      <trkpt lat="43.551" lon="6.37023">
        <ele>393.7</ele>
        <time>2025-01-29T15:45:33.000Z</time>
      </trkpt>
      <trkpt lat="43.55101" lon="6.37036">
        <ele>395.1</ele>
        <time>2025-01-29T15:45:45.000Z</time>
      </trkpt>
      <trkpt lat="43.55104" lon="6.37048">
        <ele>396.4</ele>
        <time>2025-01-29T15:45:56.000Z</time>
      </trkpt>
      <trkpt lat="43.55111" lon="6.37058">
        <ele>397.8</ele>
        <time>2025-01-29T15:46:07.000Z</time>
      </trkpt>
      <trkpt lat="43.55119" lon="6.37062">
        <ele>400.3</ele>
        <time>2025-01-29T15:46:21.000Z</time>
      </trkpt>
      <trkpt lat="43.55128" lon="6.37067">
        <ele>402.5</ele>
        <time>2025-01-29T15:46:33.000Z</time>
      </trkpt>
      <trkpt lat="43.55136" lon="6.37073">
        <ele>404.7</ele>
        <time>2025-01-29T15:46:45.000Z</time>
      </trkpt>
      <trkpt lat="43.55145" lon="6.37079">
        <ele>406.6</ele>
        <time>2025-01-29T15:46:55.000Z</time>
      </trkpt>
      <trkpt lat="43.55154" lon="6.37083">
        <ele>408.2</ele>
        <time>2025-01-29T15:47:05.000Z</time>
      </trkpt>
      <trkpt lat="43.55163" lon="6.37088">
        <ele>409.5</ele>
        <time>2025-01-29T15:47:14.000Z</time>
      </trkpt>
      <trkpt lat="43.55171" lon="6.37095">
        <ele>411.3</ele>
        <time>2025-01-29T15:47:26.000Z</time>
      </trkpt>
      <trkpt lat="43.5518" lon="6.37102">
        <ele>413.1</ele>
        <time>2025-01-29T15:48:53.000Z</time>
      </trkpt>
      <trkpt lat="43.55188" lon="6.37109">
        <ele>413.2</ele>
        <time>2025-01-29T15:49:04.000Z</time>
      </trkpt>
      <trkpt lat="43.55196" lon="6.37116">
        <ele>413.3</ele>
        <time>2025-01-29T15:49:13.000Z</time>
      </trkpt>
      <trkpt lat="43.55204" lon="6.37123">
        <ele>413.1</ele>
        <time>2025-01-29T15:49:21.000Z</time>
      </trkpt>
      <trkpt lat="43.55211" lon="6.37131">
        <ele>412.9</ele>
        <time>2025-01-29T15:49:29.000Z</time>
      </trkpt>
      <trkpt lat="43.55219" lon="6.37138">
        <ele>412.8</ele>
        <time>2025-01-29T15:49:36.000Z</time>
      </trkpt>
      <trkpt lat="43.55227" lon="6.37146">
        <ele>412.7</ele>
        <time>2025-01-29T15:49:45.000Z</time>
      </trkpt>
      <trkpt lat="43.55235" lon="6.37152">
        <ele>412.6</ele>
        <time>2025-01-29T15:49:53.000Z</time>
      </trkpt>
      <trkpt lat="43.55243" lon="6.3716">
        <ele>412.6</ele>
        <time>2025-01-29T15:50:01.000Z</time>
      </trkpt>
      <trkpt lat="43.5525" lon="6.37168">
        <ele>412.6</ele>
        <time>2025-01-29T15:50:08.000Z</time>
      </trkpt>
      <trkpt lat="43.55256" lon="6.37177">
        <ele>412.4</ele>
        <time>2025-01-29T15:50:16.000Z</time>
      </trkpt>
      <trkpt lat="43.55261" lon="6.37189">
        <ele>412.5</ele>
        <time>2025-01-29T15:50:26.000Z</time>
      </trkpt>
      <trkpt lat="43.55267" lon="6.37199">
        <ele>412.6</ele>
        <time>2025-01-29T15:50:35.000Z</time>
      </trkpt>
      <trkpt lat="43.55275" lon="6.37207">
        <ele>413</ele>
        <time>2025-01-29T15:50:45.000Z</time>
      </trkpt>
      <trkpt lat="43.55284" lon="6.37213">
        <ele>413.2</ele>
        <time>2025-01-29T15:50:54.000Z</time>
      </trkpt>
      <trkpt lat="43.55292" lon="6.37221">
        <ele>413.5</ele>
        <time>2025-01-29T15:51:03.000Z</time>
      </trkpt>
      <trkpt lat="43.553" lon="6.37228">
        <ele>414</ele>
        <time>2025-01-29T15:51:11.000Z</time>
      </trkpt>
      <trkpt lat="43.55309" lon="6.37235">
        <ele>414.7</ele>
        <time>2025-01-29T15:51:19.000Z</time>
      </trkpt>
      <trkpt lat="43.55317" lon="6.37242">
        <ele>416</ele>
        <time>2025-01-29T15:51:29.000Z</time>
      </trkpt>
      <trkpt lat="43.55325" lon="6.37248">
        <ele>416.9</ele>
        <time>2025-01-29T15:51:37.000Z</time>
      </trkpt>
      <trkpt lat="43.55333" lon="6.37254">
        <ele>418.3</ele>
        <time>2025-01-29T15:52:17.000Z</time>
      </trkpt>
      <trkpt lat="43.55342" lon="6.37256">
        <ele>418.8</ele>
        <time>2025-01-29T15:53:17.000Z</time>
      </trkpt>
      <trkpt lat="43.55351" lon="6.37254">
        <ele>419.3</ele>
        <time>2025-01-29T15:53:30.000Z</time>
      </trkpt>
      <trkpt lat="43.55361" lon="6.37252">
        <ele>419.8</ele>
        <time>2025-01-29T15:53:40.000Z</time>
      </trkpt>
      <trkpt lat="43.5537" lon="6.37249">
        <ele>420.2</ele>
        <time>2025-01-29T15:53:50.000Z</time>
      </trkpt>
      <trkpt lat="43.55379" lon="6.37246">
        <ele>420.7</ele>
        <time>2025-01-29T15:54:00.000Z</time>
      </trkpt>
      <trkpt lat="43.55388" lon="6.37243">
        <ele>421.4</ele>
        <time>2025-01-29T15:54:08.000Z</time>
      </trkpt>
      <trkpt lat="43.55398" lon="6.37238">
        <ele>422.2</ele>
        <time>2025-01-29T15:54:16.000Z</time>
      </trkpt>
      <trkpt lat="43.55407" lon="6.37234">
        <ele>422.9</ele>
        <time>2025-01-29T15:54:23.000Z</time>
      </trkpt>
      <trkpt lat="43.55416" lon="6.3723">
        <ele>423.8</ele>
        <time>2025-01-29T15:54:31.000Z</time>
      </trkpt>
      <trkpt lat="43.55425" lon="6.37225">
        <ele>424.8</ele>
        <time>2025-01-29T15:54:39.000Z</time>
      </trkpt>
      <trkpt lat="43.55434" lon="6.37223">
        <ele>426</ele>
        <time>2025-01-29T15:54:47.000Z</time>
      </trkpt>
      <trkpt lat="43.55443" lon="6.37219">
        <ele>427</ele>
        <time>2025-01-29T15:54:55.000Z</time>
      </trkpt>
      <trkpt lat="43.55452" lon="6.37216">
        <ele>428.2</ele>
        <time>2025-01-29T15:55:04.000Z</time>
      </trkpt>
      <trkpt lat="43.55461" lon="6.37214">
        <ele>429.5</ele>
        <time>2025-01-29T15:55:14.000Z</time>
      </trkpt>
      <trkpt lat="43.5547" lon="6.3721">
        <ele>430.7</ele>
        <time>2025-01-29T15:55:23.000Z</time>
      </trkpt>
      <trkpt lat="43.55479" lon="6.37206">
        <ele>431.8</ele>
        <time>2025-01-29T15:55:32.000Z</time>
      </trkpt>
      <trkpt lat="43.55488" lon="6.37199">
        <ele>433</ele>
        <time>2025-01-29T15:55:42.000Z</time>
      </trkpt>
      <trkpt lat="43.55496" lon="6.37193">
        <ele>433.9</ele>
        <time>2025-01-29T15:55:51.000Z</time>
      </trkpt>
      <trkpt lat="43.55504" lon="6.37186">
        <ele>434.5</ele>
        <time>2025-01-29T15:56:00.000Z</time>
      </trkpt>
      <trkpt lat="43.55513" lon="6.37179">
        <ele>434.8</ele>
        <time>2025-01-29T15:56:08.000Z</time>
      </trkpt>
      <trkpt lat="43.55521" lon="6.37171">
        <ele>435.2</ele>
        <time>2025-01-29T15:56:17.000Z</time>
      </trkpt>
      <trkpt lat="43.5553" lon="6.37165">
        <ele>435.5</ele>
        <time>2025-01-29T15:56:27.000Z</time>
      </trkpt>
      <trkpt lat="43.55538" lon="6.37159">
        <ele>435.9</ele>
        <time>2025-01-29T15:56:35.000Z</time>
      </trkpt>
      <trkpt lat="43.55547" lon="6.37154">
        <ele>436</ele>
        <time>2025-01-29T15:56:44.000Z</time>
      </trkpt>
      <trkpt lat="43.55556" lon="6.3715">
        <ele>436.3</ele>
        <time>2025-01-29T15:56:52.000Z</time>
      </trkpt>
      <trkpt lat="43.55565" lon="6.37145">
        <ele>436.4</ele>
        <time>2025-01-29T15:57:00.000Z</time>
      </trkpt>
      <trkpt lat="43.55573" lon="6.3714">
        <ele>436.5</ele>
        <time>2025-01-29T15:57:07.000Z</time>
      </trkpt>
      <trkpt lat="43.55582" lon="6.37136">
        <ele>436.5</ele>
        <time>2025-01-29T15:57:15.000Z</time>
      </trkpt>
      <trkpt lat="43.55592" lon="6.37132">
        <ele>436.6</ele>
        <time>2025-01-29T15:57:23.000Z</time>
      </trkpt>
      <trkpt lat="43.55601" lon="6.37127">
        <ele>436.9</ele>
        <time>2025-01-29T15:57:31.000Z</time>
      </trkpt>
      <trkpt lat="43.5561" lon="6.37123">
        <ele>437.2</ele>
        <time>2025-01-29T15:57:38.000Z</time>
      </trkpt>
      <trkpt lat="43.55619" lon="6.37119">
        <ele>437.4</ele>
        <time>2025-01-29T15:57:45.000Z</time>
      </trkpt>
      <trkpt lat="43.55629" lon="6.37114">
        <ele>437.7</ele>
        <time>2025-01-29T15:57:54.000Z</time>
      </trkpt>
      <trkpt lat="43.55638" lon="6.3711">
        <ele>438</ele>
        <time>2025-01-29T15:58:02.000Z</time>
      </trkpt>
      <trkpt lat="43.55647" lon="6.37105">
        <ele>438.2</ele>
        <time>2025-01-29T15:58:10.000Z</time>
      </trkpt>
      <trkpt lat="43.55656" lon="6.371">
        <ele>438.7</ele>
        <time>2025-01-29T15:58:18.000Z</time>
      </trkpt>
      <trkpt lat="43.55665" lon="6.37097">
        <ele>439.2</ele>
        <time>2025-01-29T15:58:26.000Z</time>
      </trkpt>
      <trkpt lat="43.55674" lon="6.37094">
        <ele>439.9</ele>
        <time>2025-01-29T15:58:35.000Z</time>
      </trkpt>
      <trkpt lat="43.55683" lon="6.37091">
        <ele>440.5</ele>
        <time>2025-01-29T15:58:43.000Z</time>
      </trkpt>
      <trkpt lat="43.55693" lon="6.37087">
        <ele>441.2</ele>
        <time>2025-01-29T15:58:51.000Z</time>
      </trkpt>
      <trkpt lat="43.55702" lon="6.37083">
        <ele>441.8</ele>
        <time>2025-01-29T15:58:59.000Z</time>
      </trkpt>
      <trkpt lat="43.55712" lon="6.37079">
        <ele>442.5</ele>
        <time>2025-01-29T15:59:07.000Z</time>
      </trkpt>
      <trkpt lat="43.55721" lon="6.37076">
        <ele>443.3</ele>
        <time>2025-01-29T15:59:17.000Z</time>
      </trkpt>
      <trkpt lat="43.55731" lon="6.37074">
        <ele>443.8</ele>
        <time>2025-01-29T15:59:25.000Z</time>
      </trkpt>
      <trkpt lat="43.55741" lon="6.37072">
        <ele>444.1</ele>
        <time>2025-01-29T15:59:34.000Z</time>
      </trkpt>
      <trkpt lat="43.5575" lon="6.37068">
        <ele>444.4</ele>
        <time>2025-01-29T15:59:45.000Z</time>
      </trkpt>
      <trkpt lat="43.5576" lon="6.37065">
        <ele>444.6</ele>
        <time>2025-01-29T15:59:53.000Z</time>
      </trkpt>
      <trkpt lat="43.55769" lon="6.37065">
        <ele>445.2</ele>
        <time>2025-01-29T16:00:03.000Z</time>
      </trkpt>
      <trkpt lat="43.55779" lon="6.37062">
        <ele>445.7</ele>
        <time>2025-01-29T16:00:11.000Z</time>
      </trkpt>
      <trkpt lat="43.55788" lon="6.37059">
        <ele>446.4</ele>
        <time>2025-01-29T16:00:19.000Z</time>
      </trkpt>
      <trkpt lat="43.55797" lon="6.37055">
        <ele>447</ele>
        <time>2025-01-29T16:00:26.000Z</time>
      </trkpt>
      <trkpt lat="43.55806" lon="6.3705">
        <ele>447.9</ele>
        <time>2025-01-29T16:00:33.000Z</time>
      </trkpt>
      <trkpt lat="43.55814" lon="6.37045">
        <ele>448.8</ele>
        <time>2025-01-29T16:00:40.000Z</time>
      </trkpt>
      <trkpt lat="43.55823" lon="6.37039">
        <ele>449.7</ele>
        <time>2025-01-29T16:00:48.000Z</time>
      </trkpt>
      <trkpt lat="43.55831" lon="6.37031">
        <ele>450.4</ele>
        <time>2025-01-29T16:00:56.000Z</time>
      </trkpt>
      <trkpt lat="43.55838" lon="6.37022">
        <ele>451</ele>
        <time>2025-01-29T16:01:03.000Z</time>
      </trkpt>
      <trkpt lat="43.55844" lon="6.37013">
        <ele>451.6</ele>
        <time>2025-01-29T16:01:11.000Z</time>
      </trkpt>
      <trkpt lat="43.55851" lon="6.37005">
        <ele>451.9</ele>
        <time>2025-01-29T16:01:18.000Z</time>
      </trkpt>
      <trkpt lat="43.55859" lon="6.36996">
        <ele>452.2</ele>
        <time>2025-01-29T16:01:26.000Z</time>
      </trkpt>
      <trkpt lat="43.55866" lon="6.36987">
        <ele>452.9</ele>
        <time>2025-01-29T16:01:34.000Z</time>
      </trkpt>
      <trkpt lat="43.55875" lon="6.3698">
        <ele>453.7</ele>
        <time>2025-01-29T16:01:42.000Z</time>
      </trkpt>
      <trkpt lat="43.55884" lon="6.36974">
        <ele>454.1</ele>
        <time>2025-01-29T16:01:49.000Z</time>
      </trkpt>
      <trkpt lat="43.55891" lon="6.36966">
        <ele>455.3</ele>
        <time>2025-01-29T16:02:33.000Z</time>
      </trkpt>
      <trkpt lat="43.559" lon="6.36963">
        <ele>455.4</ele>
        <time>2025-01-29T16:02:43.000Z</time>
      </trkpt>
      <trkpt lat="43.55909" lon="6.3696">
        <ele>455.5</ele>
        <time>2025-01-29T16:02:51.000Z</time>
      </trkpt>
      <trkpt lat="43.55918" lon="6.3696">
        <ele>456.6</ele>
        <time>2025-01-29T16:03:33.000Z</time>
      </trkpt>
      <trkpt lat="43.55928" lon="6.36957">
        <ele>456.8</ele>
        <time>2025-01-29T16:03:43.000Z</time>
      </trkpt>
      <trkpt lat="43.55937" lon="6.36955">
        <ele>457</ele>
        <time>2025-01-29T16:03:51.000Z</time>
      </trkpt>
      <trkpt lat="43.55947" lon="6.36954">
        <ele>457.3</ele>
        <time>2025-01-29T16:03:59.000Z</time>
      </trkpt>
      <trkpt lat="43.55957" lon="6.36957">
        <ele>457.6</ele>
        <time>2025-01-29T16:04:07.000Z</time>
      </trkpt>
      <trkpt lat="43.55967" lon="6.3696">
        <ele>458</ele>
        <time>2025-01-29T16:04:15.000Z</time>
      </trkpt>
      <trkpt lat="43.55976" lon="6.36964">
        <ele>458.5</ele>
        <time>2025-01-29T16:04:23.000Z</time>
      </trkpt>
      <trkpt lat="43.55985" lon="6.36967">
        <ele>458.8</ele>
        <time>2025-01-29T16:04:31.000Z</time>
      </trkpt>
      <trkpt lat="43.55995" lon="6.36969">
        <ele>459.2</ele>
        <time>2025-01-29T16:04:39.000Z</time>
      </trkpt>
      <trkpt lat="43.56005" lon="6.36972">
        <ele>459.5</ele>
        <time>2025-01-29T16:04:47.000Z</time>
      </trkpt>
      <trkpt lat="43.56015" lon="6.36974">
        <ele>459.7</ele>
        <time>2025-01-29T16:04:55.000Z</time>
      </trkpt>
      <trkpt lat="43.56024" lon="6.36976">
        <ele>460.1</ele>
        <time>2025-01-29T16:05:03.000Z</time>
      </trkpt>
      <trkpt lat="43.56033" lon="6.36978">
        <ele>460.3</ele>
        <time>2025-01-29T16:05:12.000Z</time>
      </trkpt>
      <trkpt lat="43.56043" lon="6.36981">
        <ele>460.5</ele>
        <time>2025-01-29T16:05:20.000Z</time>
      </trkpt>
      <trkpt lat="43.56052" lon="6.36983">
        <ele>460.7</ele>
        <time>2025-01-29T16:05:28.000Z</time>
      </trkpt>
      <trkpt lat="43.56061" lon="6.36984">
        <ele>461.2</ele>
        <time>2025-01-29T16:05:36.000Z</time>
      </trkpt>
      <trkpt lat="43.56071" lon="6.36985">
        <ele>461.8</ele>
        <time>2025-01-29T16:05:45.000Z</time>
      </trkpt>
      <trkpt lat="43.56081" lon="6.36985">
        <ele>462.1</ele>
        <time>2025-01-29T16:05:52.000Z</time>
      </trkpt>
      <trkpt lat="43.56091" lon="6.36983">
        <ele>462.6</ele>
        <time>2025-01-29T16:06:00.000Z</time>
      </trkpt>
      <trkpt lat="43.561" lon="6.36983">
        <ele>463.2</ele>
        <time>2025-01-29T16:06:09.000Z</time>
      </trkpt>
      <trkpt lat="43.5611" lon="6.36982">
        <ele>463.7</ele>
        <time>2025-01-29T16:06:18.000Z</time>
      </trkpt>
      <trkpt lat="43.5612" lon="6.36982">
        <ele>464.1</ele>
        <time>2025-01-29T16:06:25.000Z</time>
      </trkpt>
      <trkpt lat="43.56129" lon="6.36984">
        <ele>464.4</ele>
        <time>2025-01-29T16:06:31.000Z</time>
      </trkpt>
      <trkpt lat="43.56139" lon="6.36982">
        <ele>464.3</ele>
        <time>2025-01-29T16:06:38.000Z</time>
      </trkpt>
      <trkpt lat="43.56148" lon="6.36976">
        <ele>464.5</ele>
        <time>2025-01-29T16:06:44.000Z</time>
      </trkpt>
      <trkpt lat="43.56157" lon="6.36971">
        <ele>464.4</ele>
        <time>2025-01-29T16:06:51.000Z</time>
      </trkpt>
      <trkpt lat="43.56166" lon="6.36969">
        <ele>464.4</ele>
        <time>2025-01-29T16:06:59.000Z</time>
      </trkpt>
      <trkpt lat="43.56176" lon="6.36965">
        <ele>464.3</ele>
        <time>2025-01-29T16:07:06.000Z</time>
      </trkpt>
      <trkpt lat="43.56185" lon="6.36962">
        <ele>464.2</ele>
        <time>2025-01-29T16:07:12.000Z</time>
      </trkpt>
      <trkpt lat="43.56195" lon="6.3696">
        <ele>464.1</ele>
        <time>2025-01-29T16:07:21.000Z</time>
      </trkpt>
      <trkpt lat="43.56205" lon="6.36956">
        <ele>464.1</ele>
        <time>2025-01-29T16:07:27.000Z</time>
      </trkpt>
      <trkpt lat="43.56214" lon="6.36951">
        <ele>464</ele>
        <time>2025-01-29T16:07:33.000Z</time>
      </trkpt>
      <trkpt lat="43.56223" lon="6.36946">
        <ele>464</ele>
        <time>2025-01-29T16:07:39.000Z</time>
      </trkpt>
      <trkpt lat="43.56232" lon="6.3694">
        <ele>464.3</ele>
        <time>2025-01-29T16:07:48.000Z</time>
      </trkpt>
      <trkpt lat="43.56241" lon="6.36933">
        <ele>464.7</ele>
        <time>2025-01-29T16:08:00.000Z</time>
      </trkpt>
      <trkpt lat="43.5625" lon="6.36927">
        <ele>464.8</ele>
        <time>2025-01-29T16:08:08.000Z</time>
      </trkpt>
      <trkpt lat="43.56258" lon="6.36919">
        <ele>465</ele>
        <time>2025-01-29T16:08:15.000Z</time>
      </trkpt>
      <trkpt lat="43.56267" lon="6.36912">
        <ele>465.2</ele>
        <time>2025-01-29T16:08:22.000Z</time>
      </trkpt>
      <trkpt lat="43.56275" lon="6.36906">
        <ele>465.6</ele>
        <time>2025-01-29T16:08:29.000Z</time>
      </trkpt>
      <trkpt lat="43.56282" lon="6.36896">
        <ele>465.8</ele>
        <time>2025-01-29T16:08:35.000Z</time>
      </trkpt>
      <trkpt lat="43.56289" lon="6.36888">
        <ele>466</ele>
        <time>2025-01-29T16:08:41.000Z</time>
      </trkpt>
      <trkpt lat="43.56297" lon="6.36881">
        <ele>466</ele>
        <time>2025-01-29T16:08:47.000Z</time>
      </trkpt>
      <trkpt lat="43.56305" lon="6.36873">
        <ele>466</ele>
        <time>2025-01-29T16:08:53.000Z</time>
      </trkpt>
      <trkpt lat="43.56313" lon="6.36864">
        <ele>466.2</ele>
        <time>2025-01-29T16:09:00.000Z</time>
      </trkpt>
      <trkpt lat="43.56321" lon="6.36856">
        <ele>466.3</ele>
        <time>2025-01-29T16:09:07.000Z</time>
      </trkpt>
      <trkpt lat="43.56329" lon="6.36849">
        <ele>466.3</ele>
        <time>2025-01-29T16:09:14.000Z</time>
      </trkpt>
      <trkpt lat="43.56337" lon="6.36841">
        <ele>466.4</ele>
        <time>2025-01-29T16:09:21.000Z</time>
      </trkpt>
      <trkpt lat="43.56345" lon="6.36833">
        <ele>466.6</ele>
        <time>2025-01-29T16:09:29.000Z</time>
      </trkpt>
      <trkpt lat="43.56353" lon="6.36826">
        <ele>466.8</ele>
        <time>2025-01-29T16:09:37.000Z</time>
      </trkpt>
      <trkpt lat="43.5636" lon="6.36818">
        <ele>466.9</ele>
        <time>2025-01-29T16:09:44.000Z</time>
      </trkpt>
      <trkpt lat="43.56368" lon="6.3681">
        <ele>467.2</ele>
        <time>2025-01-29T16:09:52.000Z</time>
      </trkpt>
      <trkpt lat="43.56376" lon="6.36801">
        <ele>467.4</ele>
        <time>2025-01-29T16:09:59.000Z</time>
      </trkpt>
      <trkpt lat="43.56385" lon="6.36794">
        <ele>467.8</ele>
        <time>2025-01-29T16:10:06.000Z</time>
      </trkpt>
      <trkpt lat="43.56393" lon="6.36786">
        <ele>468.2</ele>
        <time>2025-01-29T16:10:14.000Z</time>
      </trkpt>
      <trkpt lat="43.56401" lon="6.36778">
        <ele>468.4</ele>
        <time>2025-01-29T16:10:22.000Z</time>
      </trkpt>
      <trkpt lat="43.5641" lon="6.36773">
        <ele>468.6</ele>
        <time>2025-01-29T16:10:30.000Z</time>
      </trkpt>
      <trkpt lat="43.56418" lon="6.36769">
        <ele>468.7</ele>
        <time>2025-01-29T16:10:38.000Z</time>
      </trkpt>
      <trkpt lat="43.56428" lon="6.36766">
        <ele>468.9</ele>
        <time>2025-01-29T16:10:49.000Z</time>
      </trkpt>
      <trkpt lat="43.56437" lon="6.36762">
        <ele>469.1</ele>
        <time>2025-01-29T16:11:00.000Z</time>
      </trkpt>
      <trkpt lat="43.56446" lon="6.3676">
        <ele>469.4</ele>
        <time>2025-01-29T16:11:09.000Z</time>
      </trkpt>
      <trkpt lat="43.56456" lon="6.36758">
        <ele>469.8</ele>
        <time>2025-01-29T16:11:19.000Z</time>
      </trkpt>
      <trkpt lat="43.56465" lon="6.36754">
        <ele>470.2</ele>
        <time>2025-01-29T16:11:30.000Z</time>
      </trkpt>
      <trkpt lat="43.56474" lon="6.3675">
        <ele>470.9</ele>
        <time>2025-01-29T16:11:43.000Z</time>
      </trkpt>
      <trkpt lat="43.56483" lon="6.36749">
        <ele>472.3</ele>
        <time>2025-01-29T16:12:23.000Z</time>
      </trkpt>
      <trkpt lat="43.56483" lon="6.3675">
        <ele>472.4</ele>
        <time>2025-01-29T16:12:27.000Z</time>
      </trkpt>
    </trkseg>
  </trk>
</gpx>